BAW283 EGLL-KLAX
Flight info
| Callsign | BAW283 |
|---|---|
| Flight time | 10h 44m |
| Altitude | 32000 |
| Route | CHK/09R CPT L9 BIBPE DCT BUCGO DCT FELCA DCT OFSOX DCT SLANY DCT NEBIN/M083F320 DCT 55N020W 5630N03000W 57N040W 5730N05000W DCT AVUTI/N0483F340 DCT KLIPS DCT GRAND/N0482F360 DCT GABOV DCT GFK DCT KP09A DCT KD84U DCT KU69Q DCT KU57O DCT WINEN Q73 HAKMN ANJLL4 |
| Aircraft | B77W/H-SDE1E3FGHIJ1J3J4J5J6M1M2P2RWXYZ/LB1D1 |
Departure
| Time | 2026-04-22 10:10 |
|---|---|
| Airport | London Heathrow Airport (EGLL) |
Arrival
| Time | 2026-04-22 20:54 |
|---|---|
| Airport | Los Angeles International Airport (KLAX) |
| Time | Latitude | Longitude | Altitude | Speed | Heading |
|---|---|---|---|---|---|
| 2026-04-22 10:01 | 51.47298 | -0.48357 | 92 ft | 0 kts | 181° |
| 2026-04-22 10:02 | 51.47295 | -0.48357 | 92 ft | 1 kts | 181° |
| 2026-04-22 10:02 | 51.47259 | -0.48358 | 92 ft | 10 kts | 181° |
| 2026-04-22 10:02 | 51.47176 | -0.48359 | 93 ft | 12 kts | 180° |
| 2026-04-22 10:03 | 51.47090 | -0.48358 | 92 ft | 12 kts | 179° |
| 2026-04-22 10:03 | 51.47005 | -0.48355 | 94 ft | 12 kts | 179° |
| 2026-04-22 10:03 | 51.46922 | -0.48353 | 92 ft | 10 kts | 180° |
| 2026-04-22 10:03 | 51.46862 | -0.48353 | 91 ft | 6 kts | 180° |
| 2026-04-22 10:04 | 51.46816 | -0.48353 | 91 ft | 6 kts | 179° |
| 2026-04-22 10:04 | 51.46771 | -0.48353 | 91 ft | 6 kts | 183° |
| 2026-04-22 10:04 | 51.46745 | -0.48405 | 92 ft | 7 kts | 260° |
| 2026-04-22 10:04 | 51.46742 | -0.48480 | 91 ft | 7 kts | 270° |
| 2026-04-22 10:05 | 51.46742 | -0.48554 | 91 ft | 7 kts | 270° |
| 2026-04-22 10:05 | 51.46742 | -0.48629 | 91 ft | 7 kts | 270° |
| 2026-04-22 10:05 | 51.46739 | -0.48702 | 91 ft | 5 kts | 254° |
| 2026-04-22 10:05 | 51.46720 | -0.48733 | 96 ft | 4 kts | 206° |
| 2026-04-22 10:06 | 51.46692 | -0.48742 | 96 ft | 4 kts | 186° |
| 2026-04-22 10:06 | 51.46683 | -0.48743 | 95 ft | 0 kts | 182° |
| 2026-04-22 10:07 | 51.46681 | -0.48743 | 95 ft | 1 kts | 182° |
| 2026-04-22 10:07 | 51.46653 | -0.48746 | 94 ft | 7 kts | 188° |
| 2026-04-22 10:07 | 51.46607 | -0.48765 | 94 ft | 7 kts | 196° |
| 2026-04-22 10:08 | 51.46561 | -0.48780 | 91 ft | 7 kts | 186° |
| 2026-04-22 10:08 | 51.46541 | -0.48780 | 92 ft | 2 kts | 176° |
| 2026-04-22 10:08 | 51.46528 | -0.48776 | 94 ft | 2 kts | 166° |
| 2026-04-22 10:08 | 51.46506 | -0.48759 | 95 ft | 6 kts | 147° |
| 2026-04-22 10:09 | 51.46482 | -0.48695 | 94 ft | 7 kts | 103° |
| 2026-04-22 10:09 | 51.46479 | -0.48556 | 91 ft | 25 kts | 90° |
| 2026-04-22 10:09 | 51.46482 | -0.47923 | 94 ft | 89 kts | 89° |
| 2026-04-22 10:09 | 51.46487 | -0.46608 | 97 ft | 145 kts | 89° |
| 2026-04-22 10:10 | 51.46486 | -0.44814 | 306 ft | 163 kts | 88° |
| 2026-04-22 10:10 | 51.46500 | -0.43001 | 866 ft | 162 kts | 89° |
| 2026-04-22 10:10 | 51.46246 | -0.41223 | 1250 ft | 172 kts | 122° |
| 2026-04-22 10:10 | 51.45248 | -0.40090 | 1586 ft | 188 kts | 163° |
| 2026-04-22 10:11 | 51.43902 | -0.40284 | 1866 ft | 211 kts | 198° |
| 2026-04-22 10:11 | 51.42664 | -0.41737 | 2015 ft | 231 kts | 220° |
| 2026-04-22 10:11 | 51.41507 | -0.43658 | 2202 ft | 250 kts | 230° |
| 2026-04-22 10:11 | 51.40809 | -0.46279 | 2551 ft | 264 kts | 262° |
| 2026-04-22 10:12 | 51.40819 | -0.49256 | 2972 ft | 272 kts | 275° |
| 2026-04-22 10:12 | 51.40984 | -0.52333 | 3430 ft | 283 kts | 275° |
| 2026-04-22 10:12 | 51.41175 | -0.55527 | 3944 ft | 291 kts | 276° |
| 2026-04-22 10:12 | 51.41503 | -0.58748 | 4595 ft | 293 kts | 281° |
| 2026-04-22 10:13 | 51.41920 | -0.61956 | 5215 ft | 296 kts | 281° |
| 2026-04-22 10:13 | 51.42354 | -0.65210 | 5787 ft | 300 kts | 281° |
| 2026-04-22 10:13 | 51.42782 | -0.68487 | 6431 ft | 301 kts | 281° |
| 2026-04-22 10:13 | 51.43203 | -0.71785 | 7035 ft | 303 kts | 281° |
| 2026-04-22 10:14 | 51.43613 | -0.75062 | 7586 ft | 305 kts | 281° |
| 2026-04-22 10:14 | 51.44029 | -0.78440 | 8194 ft | 305 kts | 281° |
| 2026-04-22 10:14 | 51.44433 | -0.81745 | 8762 ft | 307 kts | 280° |
| 2026-04-22 10:14 | 51.44840 | -0.85114 | 9346 ft | 309 kts | 280° |
| 2026-04-22 10:15 | 51.45244 | -0.88500 | 9929 ft | 310 kts | 280° |
| 2026-04-22 10:15 | 51.45651 | -0.91912 | 10469 ft | 312 kts | 280° |
| 2026-04-22 10:15 | 51.46068 | -0.95403 | 10726 ft | 328 kts | 280° |
| 2026-04-22 10:15 | 51.46507 | -0.99096 | 10861 ft | 346 kts | 280° |
| 2026-04-22 10:16 | 51.46969 | -1.02997 | 11039 ft | 365 kts | 280° |
| 2026-04-22 10:16 | 51.47455 | -1.07118 | 11198 ft | 385 kts | 280° |
| 2026-04-22 10:16 | 51.48020 | -1.11377 | 11582 ft | 397 kts | 283° |
| 2026-04-22 10:16 | 51.48676 | -1.15711 | 12270 ft | 401 kts | 284° |
| 2026-04-22 10:17 | 51.49360 | -1.20065 | 13029 ft | 405 kts | 284° |
| 2026-04-22 10:17 | 51.50042 | -1.24401 | 13872 ft | 406 kts | 284° |
| 2026-04-22 10:17 | 51.50724 | -1.28782 | 14742 ft | 405 kts | 284° |
| 2026-04-22 10:17 | 51.51406 | -1.33209 | 15394 ft | 410 kts | 284° |
| 2026-04-22 10:18 | 51.52087 | -1.37672 | 16174 ft | 410 kts | 284° |
| 2026-04-22 10:18 | 51.52763 | -1.42132 | 16940 ft | 412 kts | 284° |
| 2026-04-22 10:18 | 51.53439 | -1.46622 | 17709 ft | 413 kts | 285° |
| 2026-04-22 10:18 | 51.54108 | -1.51085 | 18597 ft | 411 kts | 285° |
| 2026-04-22 10:19 | 51.54773 | -1.55545 | 19340 ft | 410 kts | 285° |
| 2026-04-22 10:19 | 51.55440 | -1.60019 | 19947 ft | 413 kts | 285° |
| 2026-04-22 10:19 | 51.56103 | -1.64482 | 20448 ft | 418 kts | 284° |
| 2026-04-22 10:19 | 51.56773 | -1.69010 | 21266 ft | 414 kts | 285° |
| 2026-04-22 10:20 | 51.57437 | -1.73517 | 21904 ft | 416 kts | 284° |
| 2026-04-22 10:20 | 51.58103 | -1.78042 | 22596 ft | 415 kts | 285° |
| 2026-04-22 10:20 | 51.58768 | -1.82571 | 23135 ft | 419 kts | 284° |
| 2026-04-22 10:20 | 51.59443 | -1.87180 | 23506 ft | 426 kts | 284° |
| 2026-04-22 10:21 | 51.60123 | -1.91838 | 24034 ft | 428 kts | 284° |
| 2026-04-22 10:21 | 51.60804 | -1.96515 | 24398 ft | 433 kts | 284° |
| 2026-04-22 10:21 | 51.61490 | -2.01250 | 24879 ft | 433 kts | 284° |
| 2026-04-22 10:21 | 51.62171 | -2.05965 | 25455 ft | 433 kts | 284° |
| 2026-04-22 10:22 | 51.62852 | -2.10690 | 25928 ft | 434 kts | 284° |
| 2026-04-22 10:22 | 51.63536 | -2.15450 | 26342 ft | 437 kts | 284° |
| 2026-04-22 10:22 | 51.64222 | -2.20245 | 26619 ft | 443 kts | 284° |
| 2026-04-22 10:22 | 51.64906 | -2.25031 | 27011 ft | 445 kts | 283° |
| 2026-04-22 10:23 | 51.65608 | -2.29963 | 27387 ft | 447 kts | 283° |
| 2026-04-22 10:23 | 51.66302 | -2.34857 | 27832 ft | 448 kts | 283° |
| 2026-04-22 10:23 | 51.66995 | -2.39753 | 28273 ft | 449 kts | 283° |
| 2026-04-22 10:23 | 51.67688 | -2.44670 | 28641 ft | 451 kts | 283° |
| 2026-04-22 10:24 | 51.68375 | -2.49566 | 28918 ft | 455 kts | 283° |
| 2026-04-22 10:24 | 51.69082 | -2.54619 | 29217 ft | 458 kts | 283° |
| 2026-04-22 10:24 | 51.69774 | -2.59578 | 29527 ft | 460 kts | 283° |
| 2026-04-22 10:24 | 51.70476 | -2.64624 | 29855 ft | 460 kts | 283° |
| 2026-04-22 10:25 | 51.71171 | -2.69642 | 30345 ft | 458 kts | 283° |
| 2026-04-22 10:25 | 51.71861 | -2.74637 | 30773 ft | 455 kts | 283° |
| 2026-04-22 10:25 | 51.72547 | -2.79621 | 31158 ft | 454 kts | 283° |
| 2026-04-22 10:25 | 51.73230 | -2.84596 | 31651 ft | 454 kts | 283° |
| 2026-04-22 10:26 | 51.73910 | -2.89569 | 31955 ft | 454 kts | 283° |
| 2026-04-22 10:26 | 51.74587 | -2.94540 | 32278 ft | 453 kts | 282° |
| 2026-04-22 10:26 | 51.75263 | -2.99515 | 32408 ft | 456 kts | 282° |
| 2026-04-22 10:26 | 51.75941 | -3.04519 | 32438 ft | 455 kts | 282° |
| 2026-04-22 10:27 | 51.77277 | -3.14443 | 32443 ft | 450 kts | 282° |
| 2026-04-22 10:27 | 51.78588 | -3.24244 | 32405 ft | 450 kts | 282° |
| 2026-04-22 10:28 | 51.79901 | -3.34129 | 32365 ft | 450 kts | 282° |
| 2026-04-22 10:28 | 51.81208 | -3.44032 | 32316 ft | 451 kts | 282° |
| 2026-04-22 10:29 | 51.82509 | -3.53956 | 32280 ft | 452 kts | 282° |
| 2026-04-22 10:29 | 51.83961 | -3.63846 | 32292 ft | 453 kts | 284° |
| 2026-04-22 10:30 | 51.85531 | -3.73716 | 32295 ft | 452 kts | 284° |
| 2026-04-22 10:30 | 51.87079 | -3.83582 | 32286 ft | 452 kts | 284° |
| 2026-04-22 10:31 | 51.88596 | -3.93459 | 32279 ft | 453 kts | 283° |
| 2026-04-22 10:31 | 51.90102 | -4.03387 | 32279 ft | 455 kts | 283° |
| 2026-04-22 10:32 | 51.91605 | -4.13369 | 32278 ft | 457 kts | 283° |
| 2026-04-22 10:32 | 51.93096 | -4.23333 | 32274 ft | 459 kts | 283° |
| 2026-04-22 10:33 | 51.94593 | -4.33394 | 32276 ft | 460 kts | 283° |
| 2026-04-22 10:33 | 51.96087 | -4.43486 | 32271 ft | 460 kts | 282° |
| 2026-04-22 10:34 | 51.97330 | -4.51941 | 32275 ft | 459 kts | 282° |
| 2026-04-22 10:34 | 51.98795 | -4.61969 | 32263 ft | 459 kts | 282° |
| 2026-04-22 10:35 | 52.00256 | -4.72027 | 32284 ft | 457 kts | 282° |
| 2026-04-22 10:35 | 52.01704 | -4.82070 | 32272 ft | 456 kts | 282° |
| 2026-04-22 10:36 | 52.03142 | -4.92107 | 32281 ft | 456 kts | 282° |
| 2026-04-22 10:36 | 52.04564 | -5.02090 | 32281 ft | 457 kts | 281° |
| 2026-04-22 10:37 | 52.06697 | -5.17205 | 32281 ft | 458 kts | 281° |
| 2026-04-22 10:38 | 52.08117 | -5.27344 | 32295 ft | 461 kts | 281° |
| 2026-04-22 10:38 | 52.09531 | -5.37512 | 32285 ft | 461 kts | 281° |
| 2026-04-22 10:39 | 52.10940 | -5.47712 | 32277 ft | 461 kts | 281° |
| 2026-04-22 10:39 | 52.12329 | -5.57838 | 32273 ft | 462 kts | 281° |
| 2026-04-22 10:40 | 52.13719 | -5.68043 | 32288 ft | 461 kts | 280° |
| 2026-04-22 10:40 | 52.15095 | -5.78205 | 32293 ft | 459 kts | 281° |
| 2026-04-22 10:41 | 52.16585 | -5.88291 | 32281 ft | 457 kts | 284° |
| 2026-04-22 10:41 | 52.18465 | -5.98207 | 32271 ft | 457 kts | 285° |
| 2026-04-22 10:42 | 52.20387 | -6.08084 | 32296 ft | 456 kts | 284° |
| 2026-04-22 10:42 | 52.22256 | -6.17896 | 32286 ft | 457 kts | 284° |
| 2026-04-22 10:43 | 52.24118 | -6.27844 | 32280 ft | 460 kts | 285° |
| 2026-04-22 10:43 | 52.25979 | -6.37869 | 32291 ft | 462 kts | 284° |
| 2026-04-22 10:44 | 52.27840 | -6.47962 | 32275 ft | 464 kts | 283° |
| 2026-04-22 10:44 | 52.29688 | -6.58036 | 32285 ft | 467 kts | 283° |
| 2026-04-22 10:45 | 52.31551 | -6.68251 | 32263 ft | 470 kts | 284° |
| 2026-04-22 10:45 | 52.33415 | -6.78512 | 32272 ft | 471 kts | 284° |
| 2026-04-22 10:46 | 52.35257 | -6.88703 | 32245 ft | 462 kts | 283° |
| 2026-04-22 10:46 | 52.37066 | -6.98774 | 32254 ft | 464 kts | 283° |
| 2026-04-22 10:47 | 52.38887 | -7.08997 | 32263 ft | 471 kts | 284° |
| 2026-04-22 10:47 | 52.40715 | -7.19301 | 32253 ft | 476 kts | 283° |
| 2026-04-22 10:48 | 52.42547 | -7.29670 | 32240 ft | 470 kts | 283° |
| 2026-04-22 10:48 | 52.44345 | -7.39911 | 32254 ft | 468 kts | 283° |
| 2026-04-22 10:49 | 52.46138 | -7.50193 | 32257 ft | 470 kts | 282° |
| 2026-04-22 10:49 | 52.47929 | -7.60523 | 32251 ft | 473 kts | 282° |
| 2026-04-22 10:50 | 52.49724 | -7.70940 | 32247 ft | 476 kts | 283° |
| 2026-04-22 10:50 | 52.51519 | -7.81419 | 32245 ft | 477 kts | 283° |
| 2026-04-22 10:51 | 52.53309 | -7.91914 | 32237 ft | 477 kts | 283° |
| 2026-04-22 10:51 | 52.55085 | -8.02391 | 32221 ft | 475 kts | 282° |
| 2026-04-22 10:52 | 52.56845 | -8.12842 | 32218 ft | 474 kts | 281° |
| 2026-04-22 10:52 | 52.58589 | -8.23280 | 32213 ft | 473 kts | 282° |
| 2026-04-22 10:53 | 52.60327 | -8.33724 | 32214 ft | 474 kts | 282° |
| 2026-04-22 10:53 | 52.62047 | -8.44131 | 32202 ft | 474 kts | 282° |
| 2026-04-22 10:54 | 52.63768 | -8.54614 | 32220 ft | 475 kts | 282° |
| 2026-04-22 10:54 | 52.65490 | -8.65160 | 32211 ft | 478 kts | 281° |
| 2026-04-22 10:55 | 52.67215 | -8.75789 | 32224 ft | 481 kts | 281° |
| 2026-04-22 10:55 | 52.68938 | -8.86479 | 32220 ft | 483 kts | 282° |
| 2026-04-22 10:56 | 52.70655 | -8.97196 | 32212 ft | 483 kts | 281° |
| 2026-04-22 10:56 | 52.72350 | -9.07829 | 32223 ft | 481 kts | 281° |
| 2026-04-22 10:57 | 52.74041 | -9.18522 | 32190 ft | 481 kts | 281° |
| 2026-04-22 10:57 | 52.75723 | -9.29234 | 32183 ft | 482 kts | 281° |
| 2026-04-22 10:58 | 52.77400 | -9.39975 | 32183 ft | 483 kts | 281° |
| 2026-04-22 10:58 | 52.79068 | -9.50724 | 32197 ft | 483 kts | 281° |
| 2026-04-22 10:59 | 52.80718 | -9.61437 | 32205 ft | 483 kts | 281° |
| 2026-04-22 10:59 | 52.82371 | -9.72233 | 32193 ft | 486 kts | 280° |
| 2026-04-22 11:00 | 52.84019 | -9.83076 | 32199 ft | 488 kts | 280° |
| 2026-04-22 11:00 | 52.85667 | -9.93997 | 32208 ft | 490 kts | 281° |
| 2026-04-22 11:01 | 52.87309 | -10.04942 | 32205 ft | 490 kts | 281° |
| 2026-04-22 11:01 | 52.88944 | -10.15905 | 32210 ft | 490 kts | 280° |
| 2026-04-22 11:02 | 52.90572 | -10.26927 | 32205 ft | 496 kts | 281° |
| 2026-04-22 11:02 | 52.92211 | -10.38100 | 32210 ft | 498 kts | 281° |
| 2026-04-22 11:03 | 52.93832 | -10.49197 | 32206 ft | 499 kts | 280° |
| 2026-04-22 11:03 | 52.95453 | -10.60394 | 32199 ft | 499 kts | 280° |
| 2026-04-22 11:04 | 52.97065 | -10.71609 | 32201 ft | 498 kts | 281° |
| 2026-04-22 11:04 | 52.98660 | -10.82783 | 32186 ft | 497 kts | 280° |
| 2026-04-22 11:05 | 53.00244 | -10.93968 | 32196 ft | 497 kts | 280° |
| 2026-04-22 11:05 | 53.01804 | -11.05071 | 32189 ft | 496 kts | 280° |
| 2026-04-22 11:06 | 53.03366 | -11.16254 | 32194 ft | 497 kts | 279° |
| 2026-04-22 11:06 | 53.04918 | -11.27462 | 32200 ft | 498 kts | 279° |
| 2026-04-22 11:07 | 53.06465 | -11.38726 | 32198 ft | 500 kts | 280° |
| 2026-04-22 11:07 | 53.08010 | -11.50047 | 32181 ft | 503 kts | 279° |
| 2026-04-22 11:08 | 53.09541 | -11.61356 | 32193 ft | 504 kts | 279° |
| 2026-04-22 11:08 | 53.11075 | -11.72770 | 32171 ft | 505 kts | 279° |
| 2026-04-22 11:09 | 53.12595 | -11.84167 | 32175 ft | 505 kts | 279° |
| 2026-04-22 11:09 | 53.14108 | -11.95607 | 32163 ft | 505 kts | 279° |
| 2026-04-22 11:10 | 53.15598 | -12.06966 | 32167 ft | 504 kts | 279° |
| 2026-04-22 11:10 | 53.17094 | -12.18458 | 32153 ft | 504 kts | 279° |
| 2026-04-22 11:11 | 53.18558 | -12.29800 | 32162 ft | 504 kts | 279° |
| 2026-04-22 11:11 | 53.20024 | -12.41248 | 32153 ft | 504 kts | 279° |
| 2026-04-22 11:12 | 53.21479 | -12.52711 | 32159 ft | 507 kts | 279° |
| 2026-04-22 11:12 | 53.22933 | -12.64255 | 32159 ft | 508 kts | 279° |
| 2026-04-22 11:13 | 53.24378 | -12.75824 | 32149 ft | 509 kts | 279° |
| 2026-04-22 11:13 | 53.25806 | -12.87341 | 32148 ft | 510 kts | 279° |
| 2026-04-22 11:14 | 53.27229 | -12.98933 | 32166 ft | 509 kts | 279° |
| 2026-04-22 11:14 | 53.28644 | -13.10554 | 32135 ft | 509 kts | 279° |
| 2026-04-22 11:15 | 53.30047 | -13.22169 | 32143 ft | 509 kts | 279° |
| 2026-04-22 11:15 | 53.31436 | -13.33783 | 32151 ft | 508 kts | 279° |
| 2026-04-22 11:16 | 53.32803 | -13.45298 | 32143 ft | 508 kts | 278° |
| 2026-04-22 11:16 | 53.34169 | -13.56926 | 32138 ft | 510 kts | 279° |
| 2026-04-22 11:17 | 53.35528 | -13.68589 | 32143 ft | 511 kts | 279° |
| 2026-04-22 11:17 | 53.36877 | -13.80273 | 32131 ft | 512 kts | 279° |
| 2026-04-22 11:18 | 53.38219 | -13.92002 | 32133 ft | 512 kts | 279° |
| 2026-04-22 11:18 | 53.39547 | -14.03711 | 32155 ft | 511 kts | 278° |
| 2026-04-22 11:19 | 53.40864 | -14.15441 | 32114 ft | 512 kts | 279° |
| 2026-04-22 11:19 | 53.42169 | -14.27169 | 32127 ft | 511 kts | 279° |
| 2026-04-22 11:20 | 53.43464 | -14.38910 | 32113 ft | 512 kts | 278° |
| 2026-04-22 11:20 | 53.44739 | -14.50592 | 32114 ft | 513 kts | 279° |
| 2026-04-22 11:21 | 53.46014 | -14.62377 | 32134 ft | 513 kts | 278° |
| 2026-04-22 11:21 | 53.47278 | -14.74186 | 32120 ft | 514 kts | 278° |
| 2026-04-22 11:22 | 53.48534 | -14.86006 | 32119 ft | 514 kts | 278° |
| 2026-04-22 11:22 | 53.49733 | -14.95793 | 32102 ft | 516 kts | 285° |
| 2026-04-22 11:23 | 53.52266 | -15.07087 | 32117 ft | 520 kts | 296° |
| 2026-04-22 11:23 | 53.55746 | -15.17745 | 32101 ft | 517 kts | 300° |
| 2026-04-22 11:24 | 53.59266 | -15.28205 | 32123 ft | 515 kts | 300° |
| 2026-04-22 11:24 | 53.62757 | -15.38732 | 32104 ft | 514 kts | 299° |
| 2026-04-22 11:25 | 53.66234 | -15.49362 | 32122 ft | 522 kts | 299° |
| 2026-04-22 11:25 | 53.69740 | -15.60158 | 32140 ft | 525 kts | 299° |
| 2026-04-22 11:26 | 53.73195 | -15.70847 | 32103 ft | 513 kts | 299° |
| 2026-04-22 11:26 | 53.76597 | -15.81410 | 32144 ft | 516 kts | 298° |
| 2026-04-22 11:27 | 53.80024 | -15.92090 | 32121 ft | 517 kts | 299° |
| 2026-04-22 11:27 | 53.83439 | -16.02786 | 32127 ft | 515 kts | 298° |
| 2026-04-22 11:28 | 53.86831 | -16.13455 | 32133 ft | 512 kts | 298° |
| 2026-04-22 11:28 | 53.90197 | -16.24092 | 32120 ft | 513 kts | 298° |
| 2026-04-22 11:29 | 53.93558 | -16.34747 | 32141 ft | 515 kts | 298° |
| 2026-04-22 11:29 | 53.96952 | -16.45563 | 32161 ft | 519 kts | 298° |
| 2026-04-22 11:30 | 54.00311 | -16.56314 | 32149 ft | 509 kts | 298° |
| 2026-04-22 11:30 | 54.03603 | -16.66911 | 32157 ft | 508 kts | 298° |
| 2026-04-22 11:31 | 54.06912 | -16.77599 | 32128 ft | 514 kts | 298° |
| 2026-04-22 11:31 | 54.10270 | -16.88490 | 32163 ft | 523 kts | 298° |
| 2026-04-22 11:32 | 54.13632 | -16.99441 | 32140 ft | 523 kts | 297° |
| 2026-04-22 11:32 | 54.16950 | -17.10302 | 32160 ft | 509 kts | 297° |
| 2026-04-22 11:33 | 54.20194 | -17.20982 | 32149 ft | 507 kts | 297° |
| 2026-04-22 11:33 | 54.23441 | -17.31703 | 32166 ft | 504 kts | 297° |
| 2026-04-22 11:34 | 54.26650 | -17.42359 | 32152 ft | 504 kts | 297° |
| 2026-04-22 11:34 | 54.29875 | -17.53112 | 32171 ft | 511 kts | 297° |
| 2026-04-22 11:35 | 54.33113 | -17.63946 | 32163 ft | 502 kts | 297° |
| 2026-04-22 11:35 | 54.36215 | -17.74388 | 32172 ft | 493 kts | 297° |
| 2026-04-22 11:36 | 54.39350 | -17.84988 | 32173 ft | 503 kts | 297° |
| 2026-04-22 11:36 | 54.42526 | -17.95759 | 32177 ft | 502 kts | 297° |
| 2026-04-22 11:37 | 54.45625 | -18.06327 | 32177 ft | 489 kts | 296° |
| 2026-04-22 11:37 | 54.48697 | -18.16855 | 32188 ft | 497 kts | 296° |
| 2026-04-22 11:38 | 54.51815 | -18.27575 | 32197 ft | 499 kts | 296° |
| 2026-04-22 11:38 | 54.56388 | -18.43405 | 32159 ft | 495 kts | 296° |
| 2026-04-22 11:39 | 54.59463 | -18.54105 | 32188 ft | 500 kts | 296° |
| 2026-04-22 11:39 | 54.62561 | -18.64938 | 32197 ft | 506 kts | 297° |
| 2026-04-22 11:40 | 54.65680 | -18.75890 | 32209 ft | 510 kts | 296° |
| 2026-04-22 11:40 | 54.68786 | -18.86845 | 32180 ft | 499 kts | 296° |
| 2026-04-22 11:41 | 54.71784 | -18.97481 | 32184 ft | 492 kts | 296° |
| 2026-04-22 11:41 | 54.74800 | -19.08229 | 32177 ft | 501 kts | 296° |
| 2026-04-22 11:42 | 54.77844 | -19.19114 | 32172 ft | 503 kts | 296° |
| 2026-04-22 11:42 | 54.80833 | -19.29857 | 32176 ft | 485 kts | 296° |
| 2026-04-22 11:43 | 54.83751 | -19.40405 | 32214 ft | 487 kts | 296° |
| 2026-04-22 11:43 | 54.86690 | -19.51069 | 32191 ft | 496 kts | 296° |
| 2026-04-22 11:44 | 54.89670 | -19.61930 | 32185 ft | 499 kts | 296° |
| 2026-04-22 11:44 | 54.92642 | -19.72817 | 32204 ft | 497 kts | 295° |
| 2026-04-22 11:45 | 54.95586 | -19.83653 | 32214 ft | 493 kts | 295° |
| 2026-04-22 11:45 | 54.98500 | -19.94425 | 32209 ft | 490 kts | 295° |
| 2026-04-22 11:46 | 55.01131 | -20.05265 | 32208 ft | 487 kts | 289° |
| 2026-04-22 11:46 | 55.03305 | -20.16471 | 32227 ft | 490 kts | 288° |
| 2026-04-22 11:47 | 55.05474 | -20.27796 | 32236 ft | 493 kts | 288° |
| 2026-04-22 11:47 | 55.07656 | -20.39121 | 32201 ft | 492 kts | 288° |
| 2026-04-22 11:48 | 55.09831 | -20.50382 | 32216 ft | 491 kts | 288° |
| 2026-04-22 11:48 | 55.12007 | -20.61692 | 32219 ft | 491 kts | 288° |
| 2026-04-22 11:49 | 55.14165 | -20.72986 | 32216 ft | 489 kts | 288° |
| 2026-04-22 11:49 | 55.16310 | -20.84284 | 32231 ft | 488 kts | 288° |
| 2026-04-22 11:50 | 55.18438 | -20.95564 | 32223 ft | 488 kts | 288° |
| 2026-04-22 11:50 | 55.20558 | -21.06862 | 32227 ft | 489 kts | 288° |
| 2026-04-22 11:51 | 55.22657 | -21.18119 | 32231 ft | 491 kts | 287° |
| 2026-04-22 11:51 | 55.24768 | -21.29509 | 32240 ft | 491 kts | 287° |
| 2026-04-22 11:52 | 55.26862 | -21.40877 | 32234 ft | 489 kts | 287° |
| 2026-04-22 11:52 | 55.28938 | -21.52208 | 32233 ft | 487 kts | 286° |
| 2026-04-22 11:53 | 55.30997 | -21.63525 | 32234 ft | 486 kts | 286° |
| 2026-04-22 11:53 | 55.33043 | -21.74838 | 32248 ft | 485 kts | 287° |
| 2026-04-22 11:54 | 55.35066 | -21.86090 | 32250 ft | 486 kts | 286° |
| 2026-04-22 11:54 | 55.37093 | -21.97438 | 32252 ft | 486 kts | 287° |
| 2026-04-22 11:55 | 55.39108 | -22.08785 | 32255 ft | 486 kts | 286° |
| 2026-04-22 11:55 | 55.41113 | -22.20143 | 32252 ft | 485 kts | 285° |
| 2026-04-22 11:56 | 55.43104 | -22.31506 | 32256 ft | 485 kts | 285° |
| 2026-04-22 11:56 | 55.45073 | -22.42806 | 32265 ft | 485 kts | 285° |
| 2026-04-22 11:57 | 55.47044 | -22.54186 | 32260 ft | 485 kts | 285° |
| 2026-04-22 11:57 | 55.49002 | -22.65566 | 32273 ft | 485 kts | 285° |
| 2026-04-22 11:58 | 55.50953 | -22.76978 | 32272 ft | 486 kts | 285° |
| 2026-04-22 11:58 | 55.52893 | -22.88399 | 32282 ft | 486 kts | 284° |
| 2026-04-22 11:59 | 55.54823 | -22.99837 | 32280 ft | 486 kts | 284° |
| 2026-04-22 11:59 | 55.56741 | -23.11274 | 32280 ft | 485 kts | 284° |
| 2026-04-22 12:00 | 55.58635 | -23.22647 | 32280 ft | 485 kts | 283° |
| 2026-04-22 12:00 | 55.60533 | -23.34118 | 32300 ft | 485 kts | 283° |
| 2026-04-22 12:01 | 55.62422 | -23.45612 | 32295 ft | 485 kts | 284° |
| 2026-04-22 12:01 | 55.64296 | -23.57080 | 32294 ft | 485 kts | 283° |
| 2026-04-22 12:02 | 55.66160 | -23.68568 | 32298 ft | 485 kts | 283° |
| 2026-04-22 12:02 | 55.68010 | -23.80061 | 32300 ft | 485 kts | 284° |
| 2026-04-22 12:03 | 55.69839 | -23.91493 | 32307 ft | 485 kts | 283° |
| 2026-04-22 12:03 | 55.71670 | -24.03007 | 32302 ft | 485 kts | 282° |
| 2026-04-22 12:04 | 55.73494 | -24.14559 | 32304 ft | 485 kts | 282° |
| 2026-04-22 12:04 | 55.75303 | -24.26097 | 32320 ft | 485 kts | 283° |
| 2026-04-22 12:05 | 55.77101 | -24.37652 | 32320 ft | 486 kts | 283° |
| 2026-04-22 12:05 | 55.78882 | -24.49163 | 32312 ft | 487 kts | 282° |
| 2026-04-22 12:06 | 55.80673 | -24.60832 | 32326 ft | 488 kts | 282° |
| 2026-04-22 12:06 | 55.82454 | -24.72514 | 32328 ft | 489 kts | 282° |
| 2026-04-22 12:07 | 55.84225 | -24.84216 | 32340 ft | 490 kts | 283° |
| 2026-04-22 12:07 | 55.85973 | -24.95840 | 32327 ft | 489 kts | 282° |
| 2026-04-22 12:08 | 55.87719 | -25.07537 | 32333 ft | 489 kts | 281° |
| 2026-04-22 12:08 | 55.89456 | -25.19277 | 32344 ft | 490 kts | 282° |
| 2026-04-22 12:09 | 55.91186 | -25.31044 | 32343 ft | 491 kts | 282° |
| 2026-04-22 12:09 | 55.92907 | -25.42827 | 32335 ft | 492 kts | 282° |
| 2026-04-22 12:10 | 55.94620 | -25.54649 | 32341 ft | 492 kts | 281° |
| 2026-04-22 12:10 | 55.96321 | -25.66484 | 32351 ft | 492 kts | 281° |
| 2026-04-22 12:11 | 55.98000 | -25.78253 | 32366 ft | 492 kts | 282° |
| 2026-04-22 12:11 | 55.99682 | -25.90126 | 32358 ft | 493 kts | 282° |
| 2026-04-22 12:12 | 56.01357 | -26.02039 | 32354 ft | 495 kts | 281° |
| 2026-04-22 12:12 | 56.02741 | -26.11961 | 32371 ft | 495 kts | 281° |
| 2026-04-22 12:13 | 56.04399 | -26.23929 | 32367 ft | 495 kts | 281° |
| 2026-04-22 12:13 | 56.06044 | -26.35893 | 32363 ft | 495 kts | 281° |
| 2026-04-22 12:14 | 56.07678 | -26.47872 | 32367 ft | 495 kts | 281° |
| 2026-04-22 12:14 | 56.09303 | -26.59890 | 32373 ft | 497 kts | 282° |
| 2026-04-22 12:15 | 56.10921 | -26.71945 | 32361 ft | 499 kts | 282° |
| 2026-04-22 12:15 | 56.12536 | -26.84080 | 32366 ft | 503 kts | 282° |
| 2026-04-22 12:16 | 56.14146 | -26.96272 | 32375 ft | 507 kts | 282° |
| 2026-04-22 12:16 | 56.15762 | -27.08614 | 32380 ft | 508 kts | 282° |
| 2026-04-22 12:17 | 56.17367 | -27.20971 | 32374 ft | 507 kts | 282° |
| 2026-04-22 12:17 | 56.18958 | -27.33336 | 32384 ft | 507 kts | 283° |
| 2026-04-22 12:18 | 56.20524 | -27.45602 | 32394 ft | 507 kts | 283° |
| 2026-04-22 12:18 | 56.22087 | -27.57966 | 32379 ft | 507 kts | 284° |
| 2026-04-22 12:19 | 56.23639 | -27.70344 | 32391 ft | 508 kts | 284° |
| 2026-04-22 12:19 | 56.25183 | -27.82754 | 32392 ft | 508 kts | 284° |
| 2026-04-22 12:20 | 56.26715 | -27.95186 | 32391 ft | 509 kts | 284° |
| 2026-04-22 12:20 | 56.28236 | -28.07650 | 32399 ft | 510 kts | 284° |
| 2026-04-22 12:21 | 56.29740 | -28.20078 | 32399 ft | 511 kts | 284° |
| 2026-04-22 12:21 | 56.31245 | -28.32622 | 32396 ft | 512 kts | 284° |
| 2026-04-22 12:22 | 56.32737 | -28.45188 | 32403 ft | 513 kts | 285° |
| 2026-04-22 12:22 | 56.34220 | -28.57779 | 32409 ft | 513 kts | 285° |
| 2026-04-22 12:23 | 56.35680 | -28.70299 | 32412 ft | 514 kts | 285° |
| 2026-04-22 12:23 | 56.37137 | -28.82921 | 32414 ft | 513 kts | 285° |
| 2026-04-22 12:24 | 56.38582 | -28.95551 | 32411 ft | 513 kts | 285° |
| 2026-04-22 12:24 | 56.40011 | -29.08163 | 32417 ft | 512 kts | 285° |
| 2026-04-22 12:25 | 56.41423 | -29.20750 | 32397 ft | 511 kts | 285° |
| 2026-04-22 12:25 | 56.42819 | -29.33320 | 32420 ft | 509 kts | 285° |
| 2026-04-22 12:26 | 56.44193 | -29.45803 | 32422 ft | 509 kts | 285° |
| 2026-04-22 12:26 | 56.45561 | -29.58362 | 32427 ft | 508 kts | 285° |
| 2026-04-22 12:27 | 56.46914 | -29.70904 | 32429 ft | 507 kts | 285° |
| 2026-04-22 12:27 | 56.48244 | -29.83363 | 32431 ft | 507 kts | 285° |
| 2026-04-22 12:28 | 56.49570 | -29.95889 | 32432 ft | 507 kts | 285° |
| 2026-04-22 12:28 | 56.50826 | -30.08447 | 32439 ft | 507 kts | 284° |
| 2026-04-22 12:29 | 56.51943 | -30.21065 | 32433 ft | 507 kts | 284° |
| 2026-04-22 12:29 | 56.53033 | -30.33691 | 32434 ft | 507 kts | 284° |
| 2026-04-22 12:30 | 56.54670 | -30.52545 | 32444 ft | 507 kts | 284° |
| 2026-04-22 12:31 | 56.55761 | -30.65176 | 32439 ft | 507 kts | 284° |
| 2026-04-22 12:31 | 56.56838 | -30.77804 | 32446 ft | 507 kts | 284° |
| 2026-04-22 12:32 | 56.57902 | -30.90455 | 32420 ft | 506 kts | 285° |
| 2026-04-22 12:32 | 56.59470 | -31.09404 | 32449 ft | 506 kts | 285° |
| 2026-04-22 12:33 | 56.60500 | -31.22033 | 32452 ft | 506 kts | 285° |
| 2026-04-22 12:33 | 56.61517 | -31.34684 | 32450 ft | 506 kts | 284° |
| 2026-04-22 12:34 | 56.62521 | -31.47344 | 32456 ft | 506 kts | 284° |
| 2026-04-22 12:34 | 56.63514 | -31.60023 | 32456 ft | 506 kts | 284° |
| 2026-04-22 12:35 | 56.64486 | -31.72611 | 32412 ft | 507 kts | 284° |
| 2026-04-22 12:35 | 56.65448 | -31.85273 | 32449 ft | 505 kts | 285° |
| 2026-04-22 12:36 | 56.66396 | -31.97893 | 32452 ft | 503 kts | 285° |
| 2026-04-22 12:36 | 56.67330 | -32.10492 | 32458 ft | 502 kts | 284° |
| 2026-04-22 12:37 | 56.68250 | -32.23080 | 32466 ft | 502 kts | 284° |
| 2026-04-22 12:37 | 56.69156 | -32.35666 | 32465 ft | 502 kts | 284° |
| 2026-04-22 12:38 | 56.70052 | -32.48283 | 32463 ft | 502 kts | 284° |
| 2026-04-22 12:38 | 56.70933 | -32.60892 | 32426 ft | 502 kts | 284° |
| 2026-04-22 12:39 | 56.72224 | -32.79738 | 32464 ft | 499 kts | 284° |
| 2026-04-22 12:40 | 56.73069 | -32.92288 | 32468 ft | 498 kts | 283° |
| 2026-04-22 12:40 | 56.73893 | -33.04722 | 32472 ft | 497 kts | 283° |
| 2026-04-22 12:41 | 56.74710 | -33.17239 | 32477 ft | 497 kts | 283° |
| 2026-04-22 12:41 | 56.75515 | -33.29764 | 32480 ft | 498 kts | 283° |
| 2026-04-22 12:42 | 56.76307 | -33.42297 | 32466 ft | 497 kts | 283° |
| 2026-04-22 12:42 | 56.77084 | -33.54814 | 32484 ft | 495 kts | 282° |
| 2026-04-22 12:43 | 56.77847 | -33.67291 | 32476 ft | 494 kts | 282° |
| 2026-04-22 12:43 | 56.78596 | -33.79756 | 32473 ft | 494 kts | 282° |
| 2026-04-22 12:44 | 56.79328 | -33.92131 | 32482 ft | 493 kts | 282° |
| 2026-04-22 12:44 | 56.80052 | -34.04598 | 32477 ft | 493 kts | 282° |
| 2026-04-22 12:45 | 56.80763 | -34.17056 | 32481 ft | 493 kts | 282° |
| 2026-04-22 12:45 | 56.81461 | -34.29515 | 32483 ft | 493 kts | 281° |
| 2026-04-22 12:46 | 56.82146 | -34.41969 | 32485 ft | 493 kts | 281° |
| 2026-04-22 12:46 | 56.82819 | -34.54420 | 32485 ft | 493 kts | 281° |
| 2026-04-22 12:47 | 56.83475 | -34.66804 | 32482 ft | 493 kts | 281° |
| 2026-04-22 12:47 | 56.84124 | -34.79285 | 32483 ft | 493 kts | 281° |
| 2026-04-22 12:48 | 56.84761 | -34.91769 | 32476 ft | 493 kts | 281° |
| 2026-04-22 12:48 | 56.85380 | -35.04184 | 32482 ft | 492 kts | 280° |
| 2026-04-22 12:49 | 56.85990 | -35.16640 | 32477 ft | 492 kts | 280° |
| 2026-04-22 12:49 | 56.86586 | -35.29079 | 32475 ft | 490 kts | 279° |
| 2026-04-22 12:50 | 56.87169 | -35.41488 | 32477 ft | 489 kts | 279° |
| 2026-04-22 12:50 | 56.87737 | -35.53874 | 32479 ft | 488 kts | 279° |
| 2026-04-22 12:51 | 56.88290 | -35.66181 | 32469 ft | 488 kts | 279° |
| 2026-04-22 12:51 | 56.88834 | -35.78547 | 32479 ft | 487 kts | 279° |
| 2026-04-22 12:52 | 56.89364 | -35.90911 | 32485 ft | 487 kts | 279° |
| 2026-04-22 12:52 | 56.89883 | -36.03284 | 32484 ft | 487 kts | 278° |
| 2026-04-22 12:53 | 56.90388 | -36.15588 | 32474 ft | 487 kts | 278° |
| 2026-04-22 12:53 | 56.90882 | -36.27970 | 32483 ft | 487 kts | 278° |
| 2026-04-22 12:54 | 56.91363 | -36.40344 | 32466 ft | 487 kts | 278° |
| 2026-04-22 12:54 | 56.91833 | -36.52706 | 32479 ft | 486 kts | 277° |
| 2026-04-22 12:55 | 56.92213 | -36.62974 | 32483 ft | 486 kts | 277° |
| 2026-04-22 12:55 | 56.92730 | -36.77343 | 32480 ft | 486 kts | 277° |
| 2026-04-22 12:56 | 56.93163 | -36.89718 | 32480 ft | 486 kts | 277° |
| 2026-04-22 12:56 | 56.93583 | -37.02076 | 32474 ft | 486 kts | 277° |
| 2026-04-22 12:57 | 56.93990 | -37.14433 | 32483 ft | 486 kts | 276° |
| 2026-04-22 12:57 | 56.94386 | -37.26794 | 32478 ft | 486 kts | 276° |
| 2026-04-22 12:58 | 56.94766 | -37.39077 | 32486 ft | 486 kts | 276° |
| 2026-04-22 12:58 | 56.95137 | -37.51432 | 32485 ft | 486 kts | 276° |
| 2026-04-22 12:59 | 56.95496 | -37.63805 | 32485 ft | 486 kts | 276° |
| 2026-04-22 12:59 | 56.95843 | -37.76187 | 32488 ft | 486 kts | 276° |
| 2026-04-22 13:00 | 56.96177 | -37.88551 | 32467 ft | 486 kts | 276° |
| 2026-04-22 13:00 | 56.96497 | -38.00861 | 32471 ft | 486 kts | 276° |
| 2026-04-22 13:01 | 56.96808 | -38.13258 | 32496 ft | 487 kts | 276° |
| 2026-04-22 13:01 | 56.97108 | -38.25689 | 32493 ft | 487 kts | 276° |
| 2026-04-22 13:02 | 56.97394 | -38.38116 | 32492 ft | 488 kts | 275° |
| 2026-04-22 13:02 | 56.97667 | -38.50493 | 32488 ft | 488 kts | 275° |
| 2026-04-22 13:03 | 56.97887 | -38.60918 | 32487 ft | 488 kts | 275° |
| 2026-04-22 13:03 | 56.98138 | -38.73289 | 32489 ft | 488 kts | 275° |
| 2026-04-22 13:04 | 56.98377 | -38.85723 | 32477 ft | 488 kts | 275° |
| 2026-04-22 13:04 | 56.98604 | -38.98167 | 32484 ft | 488 kts | 275° |
| 2026-04-22 13:05 | 56.98820 | -39.10618 | 32485 ft | 489 kts | 275° |
| 2026-04-22 13:05 | 56.99023 | -39.23092 | 32492 ft | 489 kts | 275° |
| 2026-04-22 13:06 | 56.99213 | -39.35566 | 32487 ft | 489 kts | 275° |
| 2026-04-22 13:06 | 56.99390 | -39.47968 | 32486 ft | 490 kts | 275° |
| 2026-04-22 13:07 | 56.99556 | -39.60473 | 32481 ft | 490 kts | 275° |
| 2026-04-22 13:07 | 56.99709 | -39.72948 | 32481 ft | 489 kts | 275° |
| 2026-04-22 13:08 | 56.99852 | -39.85474 | 32488 ft | 490 kts | 275° |
| 2026-04-22 13:08 | 56.99995 | -39.97994 | 32487 ft | 491 kts | 277° |
| 2026-04-22 13:09 | 57.00828 | -40.10256 | 32495 ft | 486 kts | 284° |
| 2026-04-22 13:09 | 57.01975 | -40.22490 | 32484 ft | 487 kts | 284° |
| 2026-04-22 13:10 | 57.03099 | -40.34765 | 32485 ft | 487 kts | 284° |
| 2026-04-22 13:10 | 57.04185 | -40.47055 | 32452 ft | 487 kts | 283° |
| 2026-04-22 13:11 | 57.05245 | -40.59336 | 32472 ft | 487 kts | 283° |
| 2026-04-22 13:11 | 57.06295 | -40.71657 | 32483 ft | 488 kts | 283° |
| 2026-04-22 13:12 | 57.07328 | -40.83906 | 32486 ft | 488 kts | 283° |
| 2026-04-22 13:12 | 57.08355 | -40.96228 | 32481 ft | 488 kts | 282° |
| 2026-04-22 13:13 | 57.09371 | -41.08573 | 32465 ft | 488 kts | 282° |
| 2026-04-22 13:13 | 57.10376 | -41.20928 | 32449 ft | 488 kts | 282° |
| 2026-04-22 13:14 | 57.11367 | -41.33269 | 32455 ft | 487 kts | 282° |
| 2026-04-22 13:14 | 57.12342 | -41.45588 | 32467 ft | 486 kts | 282° |
| 2026-04-22 13:15 | 57.13305 | -41.57888 | 32467 ft | 485 kts | 282° |
| 2026-04-22 13:15 | 57.14248 | -41.70106 | 32463 ft | 485 kts | 282° |
| 2026-04-22 13:16 | 57.15186 | -41.82403 | 32464 ft | 485 kts | 281° |
| 2026-04-22 13:16 | 57.16110 | -41.94700 | 32458 ft | 485 kts | 281° |
| 2026-04-22 13:17 | 57.17023 | -42.07003 | 32455 ft | 484 kts | 281° |
| 2026-04-22 13:17 | 57.17918 | -42.19240 | 32460 ft | 484 kts | 281° |
| 2026-04-22 13:18 | 57.18807 | -42.31553 | 32458 ft | 484 kts | 280° |
| 2026-04-22 13:18 | 57.19683 | -42.43872 | 32453 ft | 484 kts | 280° |
| 2026-04-22 13:19 | 57.20546 | -42.56181 | 32452 ft | 484 kts | 280° |
| 2026-04-22 13:19 | 57.21398 | -42.68513 | 32450 ft | 484 kts | 280° |
| 2026-04-22 13:20 | 57.22238 | -42.80839 | 32439 ft | 484 kts | 280° |
| 2026-04-22 13:20 | 57.23064 | -42.93160 | 32440 ft | 484 kts | 280° |
| 2026-04-22 13:21 | 57.23877 | -43.05451 | 32441 ft | 484 kts | 279° |
| 2026-04-22 13:21 | 57.24681 | -43.17799 | 32426 ft | 484 kts | 279° |
| 2026-04-22 13:22 | 57.25472 | -43.30153 | 32437 ft | 484 kts | 279° |
| 2026-04-22 13:22 | 57.26251 | -43.42504 | 32436 ft | 484 kts | 279° |
| 2026-04-22 13:23 | 57.27014 | -43.54792 | 32423 ft | 484 kts | 278° |
| 2026-04-22 13:23 | 57.27767 | -43.67137 | 32426 ft | 484 kts | 278° |
| 2026-04-22 13:24 | 57.28511 | -43.79527 | 32419 ft | 484 kts | 278° |
| 2026-04-22 13:24 | 57.29242 | -43.91898 | 32418 ft | 484 kts | 278° |
| 2026-04-22 13:25 | 57.29960 | -44.04269 | 32417 ft | 484 kts | 278° |
| 2026-04-22 13:25 | 57.30665 | -44.16641 | 32406 ft | 484 kts | 278° |
| 2026-04-22 13:26 | 57.31356 | -44.28948 | 32406 ft | 484 kts | 277° |
| 2026-04-22 13:26 | 57.32038 | -44.41355 | 32401 ft | 484 kts | 277° |
| 2026-04-22 13:27 | 57.32708 | -44.53757 | 32402 ft | 484 kts | 277° |
| 2026-04-22 13:27 | 57.33361 | -44.66077 | 32393 ft | 484 kts | 277° |
| 2026-04-22 13:28 | 57.34007 | -44.78487 | 32389 ft | 484 kts | 277° |
| 2026-04-22 13:28 | 57.34640 | -44.90885 | 32391 ft | 484 kts | 276° |
| 2026-04-22 13:29 | 57.35261 | -45.03288 | 32394 ft | 483 kts | 275° |
| 2026-04-22 13:29 | 57.35867 | -45.15651 | 32378 ft | 482 kts | 275° |
| 2026-04-22 13:30 | 57.36460 | -45.28008 | 32375 ft | 481 kts | 275° |
| 2026-04-22 13:30 | 57.37040 | -45.40349 | 32383 ft | 480 kts | 274° |
| 2026-04-22 13:31 | 57.37603 | -45.52578 | 32371 ft | 480 kts | 274° |
| 2026-04-22 13:31 | 57.38159 | -45.64916 | 32369 ft | 480 kts | 274° |
| 2026-04-22 13:32 | 57.38704 | -45.77248 | 32369 ft | 480 kts | 273° |
| 2026-04-22 13:32 | 57.39236 | -45.89598 | 32354 ft | 481 kts | 273° |
| 2026-04-22 13:33 | 57.39756 | -46.01969 | 32360 ft | 481 kts | 272° |
| 2026-04-22 13:33 | 57.40265 | -46.14352 | 32350 ft | 481 kts | 273° |
| 2026-04-22 13:34 | 57.40759 | -46.26661 | 32343 ft | 481 kts | 271° |
| 2026-04-22 13:34 | 57.41242 | -46.39021 | 32336 ft | 480 kts | 272° |
| 2026-04-22 13:35 | 57.41713 | -46.51377 | 32347 ft | 480 kts | 271° |
| 2026-04-22 13:35 | 57.42173 | -46.63741 | 32325 ft | 480 kts | 271° |
| 2026-04-22 13:36 | 57.42619 | -46.76092 | 32326 ft | 479 kts | 271° |
| 2026-04-22 13:36 | 57.43054 | -46.88432 | 32321 ft | 479 kts | 271° |
| 2026-04-22 13:37 | 57.43473 | -47.00706 | 32317 ft | 479 kts | 271° |
| 2026-04-22 13:37 | 57.43883 | -47.13041 | 32311 ft | 478 kts | 270° |
| 2026-04-22 13:38 | 57.44280 | -47.25376 | 32308 ft | 478 kts | 270° |
| 2026-04-22 13:38 | 57.44854 | -47.43889 | 32300 ft | 478 kts | 270° |
| 2026-04-22 13:39 | 57.45218 | -47.56120 | 32299 ft | 477 kts | 270° |
| 2026-04-22 13:39 | 57.45573 | -47.68454 | 32306 ft | 477 kts | 269° |
| 2026-04-22 13:40 | 57.45916 | -47.80774 | 32291 ft | 477 kts | 270° |
| 2026-04-22 13:40 | 57.46247 | -47.93119 | 32291 ft | 477 kts | 269° |
| 2026-04-22 13:41 | 57.46564 | -48.05372 | 32293 ft | 478 kts | 269° |
| 2026-04-22 13:41 | 57.46872 | -48.17739 | 32273 ft | 478 kts | 269° |
| 2026-04-22 13:42 | 57.47166 | -48.30068 | 32268 ft | 477 kts | 269° |
| 2026-04-22 13:42 | 57.47448 | -48.42396 | 32262 ft | 477 kts | 268° |
| 2026-04-22 13:43 | 57.47717 | -48.54636 | 32257 ft | 477 kts | 268° |
| 2026-04-22 13:43 | 57.47975 | -48.66950 | 32252 ft | 476 kts | 268° |
| 2026-04-22 13:44 | 57.48221 | -48.79266 | 32277 ft | 476 kts | 268° |
| 2026-04-22 13:44 | 57.48456 | -48.91569 | 32240 ft | 476 kts | 267° |
| 2026-04-22 13:45 | 57.48678 | -49.03847 | 32231 ft | 474 kts | 267° |
| 2026-04-22 13:45 | 57.48885 | -49.16024 | 32232 ft | 473 kts | 266° |
| 2026-04-22 13:46 | 57.49082 | -49.28240 | 32216 ft | 472 kts | 266° |
| 2026-04-22 13:46 | 57.49266 | -49.40435 | 32216 ft | 472 kts | 266° |
| 2026-04-22 13:47 | 57.49439 | -49.52656 | 32217 ft | 472 kts | 266° |
| 2026-04-22 13:47 | 57.49600 | -49.64854 | 32214 ft | 472 kts | 266° |
| 2026-04-22 13:48 | 57.49749 | -49.77009 | 32210 ft | 472 kts | 266° |
| 2026-04-22 13:48 | 57.49888 | -49.89221 | 32211 ft | 472 kts | 265° |
| 2026-04-22 13:49 | 57.50018 | -50.01432 | 32202 ft | 472 kts | 266° |
| 2026-04-22 13:49 | 57.50295 | -50.13645 | 32202 ft | 473 kts | 267° |
| 2026-04-22 13:50 | 57.50649 | -50.25806 | 32200 ft | 473 kts | 267° |
| 2026-04-22 13:50 | 57.50982 | -50.38023 | 32200 ft | 473 kts | 267° |
| 2026-04-22 13:51 | 57.51285 | -50.50265 | 32200 ft | 473 kts | 267° |
| 2026-04-22 13:51 | 57.51566 | -50.62474 | 32202 ft | 473 kts | 267° |
| 2026-04-22 13:52 | 57.51833 | -50.74640 | 32199 ft | 473 kts | 267° |
| 2026-04-22 13:52 | 57.52049 | -50.84829 | 32216 ft | 473 kts | 266° |
| 2026-04-22 13:53 | 57.52337 | -50.99079 | 32200 ft | 474 kts | 266° |
| 2026-04-22 13:53 | 57.52573 | -51.11352 | 32219 ft | 475 kts | 265° |
| 2026-04-22 13:54 | 57.52761 | -51.21631 | 32215 ft | 474 kts | 265° |
| 2026-04-22 13:54 | 57.52975 | -51.33891 | 32211 ft | 474 kts | 265° |
| 2026-04-22 13:55 | 57.53175 | -51.46069 | 32215 ft | 473 kts | 265° |
| 2026-04-22 13:55 | 57.53365 | -51.58306 | 32215 ft | 473 kts | 265° |
| 2026-04-22 13:56 | 57.53542 | -51.70533 | 32222 ft | 473 kts | 265° |
| 2026-04-22 13:56 | 57.53708 | -51.82768 | 32286 ft | 472 kts | 264° |
| 2026-04-22 13:57 | 57.53862 | -51.95020 | 32223 ft | 472 kts | 264° |
| 2026-04-22 13:57 | 57.54004 | -52.07223 | 32229 ft | 471 kts | 264° |
| 2026-04-22 13:58 | 57.54133 | -52.19334 | 32230 ft | 470 kts | 263° |
| 2026-04-22 13:58 | 57.54251 | -52.31485 | 32234 ft | 469 kts | 263° |
| 2026-04-22 13:59 | 57.54356 | -52.43652 | 32237 ft | 469 kts | 263° |
| 2026-04-22 13:59 | 57.54450 | -52.55806 | 32292 ft | 469 kts | 263° |
| 2026-04-22 14:00 | 57.54533 | -52.67958 | 32247 ft | 469 kts | 262° |
| 2026-04-22 14:00 | 57.54604 | -52.80104 | 32239 ft | 468 kts | 262° |
| 2026-04-22 14:01 | 57.54664 | -52.92156 | 32248 ft | 468 kts | 262° |
| 2026-04-22 14:01 | 57.54711 | -53.04276 | 32242 ft | 467 kts | 262° |
| 2026-04-22 14:02 | 57.54747 | -53.16387 | 32246 ft | 467 kts | 262° |
| 2026-04-22 14:02 | 57.54771 | -53.28466 | 32254 ft | 466 kts | 262° |
| 2026-04-22 14:03 | 57.54783 | -53.40495 | 32255 ft | 468 kts | 261° |
| 2026-04-22 14:03 | 57.54784 | -53.52606 | 32244 ft | 467 kts | 261° |
| 2026-04-22 14:04 | 57.54775 | -53.64682 | 32250 ft | 465 kts | 261° |
| 2026-04-22 14:04 | 57.54754 | -53.76721 | 32249 ft | 465 kts | 261° |
| 2026-04-22 14:05 | 57.54720 | -53.88767 | 32262 ft | 465 kts | 260° |
| 2026-04-22 14:06 | 57.54648 | -54.06824 | 32302 ft | 465 kts | 259° |
| 2026-04-22 14:06 | 57.54586 | -54.18877 | 32257 ft | 466 kts | 259° |
| 2026-04-22 14:07 | 57.54513 | -54.30935 | 32250 ft | 466 kts | 259° |
| 2026-04-22 14:07 | 57.54429 | -54.42903 | 32255 ft | 465 kts | 259° |
| 2026-04-22 14:08 | 57.54333 | -54.54975 | 32252 ft | 465 kts | 259° |
| 2026-04-22 14:08 | 57.54225 | -54.67032 | 32255 ft | 465 kts | 259° |
| 2026-04-22 14:09 | 57.54106 | -54.79061 | 32251 ft | 465 kts | 259° |
| 2026-04-22 14:09 | 57.53976 | -54.91027 | 32274 ft | 466 kts | 258° |
| 2026-04-22 14:10 | 57.53833 | -55.03096 | 32257 ft | 466 kts | 258° |
| 2026-04-22 14:10 | 57.53681 | -55.15144 | 32256 ft | 465 kts | 258° |
| 2026-04-22 14:11 | 57.53516 | -55.27189 | 32253 ft | 464 kts | 258° |
| 2026-04-22 14:11 | 57.53341 | -55.39131 | 32252 ft | 464 kts | 257° |
| 2026-04-22 14:12 | 57.53154 | -55.51134 | 32252 ft | 464 kts | 257° |
| 2026-04-22 14:12 | 57.52954 | -55.63153 | 32272 ft | 464 kts | 257° |
| 2026-04-22 14:13 | 57.52744 | -55.75169 | 32256 ft | 464 kts | 257° |
| 2026-04-22 14:13 | 57.52524 | -55.87157 | 32276 ft | 463 kts | 257° |
| 2026-04-22 14:14 | 57.52292 | -55.99134 | 32254 ft | 462 kts | 256° |
| 2026-04-22 14:14 | 57.52051 | -56.10997 | 32248 ft | 461 kts | 256° |
| 2026-04-22 14:15 | 57.51797 | -56.22932 | 32248 ft | 460 kts | 256° |
| 2026-04-22 14:15 | 57.51534 | -56.34816 | 32309 ft | 456 kts | 255° |
| 2026-04-22 14:16 | 57.51273 | -56.46473 | 32262 ft | 447 kts | 255° |
| 2026-04-22 14:16 | 57.50988 | -56.58009 | 32240 ft | 450 kts | 255° |
| 2026-04-22 14:17 | 57.50690 | -56.69656 | 32245 ft | 452 kts | 255° |
| 2026-04-22 14:17 | 57.50387 | -56.81339 | 32237 ft | 452 kts | 255° |
| 2026-04-22 14:18 | 57.50074 | -56.93037 | 32250 ft | 453 kts | 254° |
| 2026-04-22 14:18 | 57.49751 | -57.04715 | 32324 ft | 451 kts | 254° |
| 2026-04-22 14:19 | 57.49431 | -57.16228 | 32241 ft | 440 kts | 253° |
| 2026-04-22 14:19 | 57.49091 | -57.27583 | 32252 ft | 441 kts | 253° |
| 2026-04-22 14:20 | 57.48557 | -57.44625 | 32239 ft | 443 kts | 253° |
| 2026-04-22 14:20 | 57.48193 | -57.56072 | 32238 ft | 444 kts | 253° |
| 2026-04-22 14:21 | 57.47629 | -57.73249 | 32236 ft | 443 kts | 253° |
| 2026-04-22 14:22 | 57.47042 | -57.90394 | 32234 ft | 442 kts | 252° |
| 2026-04-22 14:23 | 57.47099 | -58.07782 | 32267 ft | 464 kts | 263° |
| 2026-04-22 14:23 | 57.47481 | -58.13738 | 32583 ft | 464 kts | 263° |
| 2026-04-22 14:23 | 57.47863 | -58.19666 | 33116 ft | 458 kts | 262° |
| 2026-04-22 14:23 | 57.48233 | -58.25433 | 33730 ft | 451 kts | 262° |
| 2026-04-22 14:24 | 57.48594 | -58.31184 | 34249 ft | 446 kts | 262° |
| 2026-04-22 14:24 | 57.49274 | -58.42691 | 34233 ft | 445 kts | 261° |
| 2026-04-22 14:25 | 57.49934 | -58.54073 | 34238 ft | 440 kts | 261° |
| 2026-04-22 14:25 | 57.50574 | -58.65322 | 34228 ft | 435 kts | 260° |
| 2026-04-22 14:26 | 57.51196 | -58.76487 | 34229 ft | 433 kts | 260° |
| 2026-04-22 14:26 | 57.51803 | -58.87605 | 34237 ft | 435 kts | 260° |
| 2026-04-22 14:27 | 57.52408 | -58.98847 | 34236 ft | 438 kts | 260° |
| 2026-04-22 14:27 | 57.53010 | -59.10167 | 34234 ft | 440 kts | 260° |
| 2026-04-22 14:28 | 57.53608 | -59.21594 | 34237 ft | 445 kts | 260° |
| 2026-04-22 14:28 | 57.54196 | -59.33016 | 34248 ft | 448 kts | 259° |
| 2026-04-22 14:29 | 57.54785 | -59.44588 | 34242 ft | 449 kts | 259° |
| 2026-04-22 14:29 | 57.55365 | -59.56187 | 34239 ft | 449 kts | 259° |
| 2026-04-22 14:30 | 57.55932 | -59.67754 | 34239 ft | 448 kts | 259° |
| 2026-04-22 14:30 | 57.56485 | -59.79284 | 34292 ft | 447 kts | 259° |
| 2026-04-22 14:31 | 57.57025 | -59.90863 | 34259 ft | 449 kts | 259° |
| 2026-04-22 14:31 | 57.57558 | -60.02480 | 34256 ft | 450 kts | 259° |
| 2026-04-22 14:32 | 57.58080 | -60.14062 | 34254 ft | 451 kts | 259° |
| 2026-04-22 14:32 | 57.58595 | -60.25733 | 34253 ft | 452 kts | 259° |
| 2026-04-22 14:33 | 57.59101 | -60.37422 | 34254 ft | 452 kts | 259° |
| 2026-04-22 14:33 | 57.59594 | -60.49115 | 34286 ft | 454 kts | 260° |
| 2026-04-22 14:34 | 57.60078 | -60.60917 | 34276 ft | 457 kts | 260° |
| 2026-04-22 14:34 | 57.60555 | -60.72743 | 34295 ft | 459 kts | 260° |
| 2026-04-22 14:35 | 57.61023 | -60.84580 | 34286 ft | 461 kts | 260° |
| 2026-04-22 14:35 | 57.61485 | -60.96519 | 34270 ft | 461 kts | 260° |
| 2026-04-22 14:36 | 57.61935 | -61.08470 | 34342 ft | 461 kts | 260° |
| 2026-04-22 14:36 | 57.62371 | -61.20443 | 34287 ft | 464 kts | 261° |
| 2026-04-22 14:37 | 57.62799 | -61.32464 | 34286 ft | 465 kts | 261° |
| 2026-04-22 14:37 | 57.63218 | -61.44509 | 34286 ft | 465 kts | 261° |
| 2026-04-22 14:38 | 57.63623 | -61.56499 | 34284 ft | 465 kts | 261° |
| 2026-04-22 14:38 | 57.64019 | -61.68561 | 34287 ft | 465 kts | 260° |
| 2026-04-22 14:39 | 57.64400 | -61.80603 | 34299 ft | 466 kts | 261° |
| 2026-04-22 14:39 | 57.64771 | -61.92715 | 34296 ft | 468 kts | 261° |
| 2026-04-22 14:40 | 57.65312 | -62.10994 | 34302 ft | 471 kts | 261° |
| 2026-04-22 14:40 | 57.65660 | -62.23242 | 34304 ft | 474 kts | 261° |
| 2026-04-22 14:41 | 57.65942 | -62.33466 | 34313 ft | 475 kts | 261° |
| 2026-04-22 14:41 | 57.66271 | -62.45792 | 34317 ft | 476 kts | 262° |
| 2026-04-22 14:42 | 57.66590 | -62.58138 | 34315 ft | 476 kts | 262° |
| 2026-04-22 14:42 | 57.66895 | -62.70514 | 34301 ft | 476 kts | 262° |
| 2026-04-22 14:43 | 57.67188 | -62.82878 | 34306 ft | 475 kts | 262° |
| 2026-04-22 14:43 | 57.67467 | -62.95210 | 34313 ft | 475 kts | 262° |
| 2026-04-22 14:44 | 57.67734 | -63.07461 | 34375 ft | 475 kts | 263° |
| 2026-04-22 14:44 | 57.67992 | -63.19833 | 34325 ft | 475 kts | 263° |
| 2026-04-22 14:45 | 57.68238 | -63.32155 | 34314 ft | 474 kts | 263° |
| 2026-04-22 14:45 | 57.68468 | -63.44478 | 34323 ft | 475 kts | 263° |
| 2026-04-22 14:46 | 57.68685 | -63.56826 | 34345 ft | 476 kts | 263° |
| 2026-04-22 14:46 | 57.68894 | -63.69211 | 34350 ft | 477 kts | 263° |
| 2026-04-22 14:47 | 57.69091 | -63.81619 | 34351 ft | 479 kts | 264° |
| 2026-04-22 14:47 | 57.69278 | -63.94085 | 34357 ft | 480 kts | 264° |
| 2026-04-22 14:48 | 57.69452 | -64.06553 | 34352 ft | 480 kts | 264° |
| 2026-04-22 14:48 | 57.69613 | -64.18925 | 34353 ft | 479 kts | 263° |
| 2026-04-22 14:49 | 57.69764 | -64.31394 | 34355 ft | 479 kts | 263° |
| 2026-04-22 14:49 | 57.69899 | -64.43840 | 34350 ft | 478 kts | 263° |
| 2026-04-22 14:50 | 57.70024 | -64.56256 | 34342 ft | 477 kts | 263° |
| 2026-04-22 14:50 | 57.70135 | -64.68681 | 34346 ft | 477 kts | 263° |
| 2026-04-22 14:51 | 57.70234 | -64.81074 | 34347 ft | 477 kts | 263° |
| 2026-04-22 14:51 | 57.70320 | -64.93484 | 34344 ft | 477 kts | 263° |
| 2026-04-22 14:52 | 57.70397 | -65.05822 | 34380 ft | 477 kts | 263° |
| 2026-04-22 14:52 | 57.70459 | -65.18265 | 34340 ft | 479 kts | 263° |
| 2026-04-22 14:53 | 57.70511 | -65.30737 | 34346 ft | 480 kts | 263° |
| 2026-04-22 14:53 | 57.70555 | -65.43235 | 34324 ft | 480 kts | 263° |
| 2026-04-22 14:54 | 57.70577 | -65.55642 | 34330 ft | 480 kts | 263° |
| 2026-04-22 14:54 | 57.70591 | -65.68132 | 34326 ft | 480 kts | 263° |
| 2026-04-22 14:55 | 57.70593 | -65.80643 | 34326 ft | 481 kts | 264° |
| 2026-04-22 14:55 | 57.70585 | -65.93163 | 34316 ft | 481 kts | 264° |
| 2026-04-22 14:56 | 57.70563 | -66.05679 | 34313 ft | 481 kts | 263° |
| 2026-04-22 14:56 | 57.70529 | -66.18196 | 34294 ft | 481 kts | 263° |
| 2026-04-22 14:57 | 57.70482 | -66.30606 | 34296 ft | 480 kts | 263° |
| 2026-04-22 14:57 | 57.70423 | -66.43086 | 34304 ft | 480 kts | 264° |
| 2026-04-22 14:58 | 57.70352 | -66.55568 | 34292 ft | 479 kts | 264° |
| 2026-04-22 14:58 | 57.70268 | -66.68033 | 34286 ft | 479 kts | 264° |
| 2026-04-22 14:59 | 57.70174 | -66.80527 | 34287 ft | 480 kts | 264° |
| 2026-04-22 14:59 | 57.70067 | -66.93017 | 34281 ft | 480 kts | 264° |
| 2026-04-22 15:00 | 57.69580 | -67.05377 | 34307 ft | 473 kts | 255° |
| 2026-04-22 15:00 | 57.68380 | -67.17406 | 34292 ft | 473 kts | 254° |
| 2026-04-22 15:01 | 57.67153 | -67.29520 | 34283 ft | 474 kts | 255° |
| 2026-04-22 15:01 | 57.65943 | -67.41635 | 34270 ft | 474 kts | 255° |
| 2026-04-22 15:02 | 57.64736 | -67.53745 | 34270 ft | 474 kts | 255° |
| 2026-04-22 15:02 | 57.63523 | -67.65845 | 34268 ft | 474 kts | 255° |
| 2026-04-22 15:03 | 57.62297 | -67.77936 | 34293 ft | 474 kts | 255° |
| 2026-04-22 15:03 | 57.61057 | -67.90028 | 34264 ft | 474 kts | 255° |
| 2026-04-22 15:04 | 57.59814 | -68.02036 | 34260 ft | 474 kts | 255° |
| 2026-04-22 15:04 | 57.58551 | -68.14121 | 34256 ft | 474 kts | 255° |
| 2026-04-22 15:05 | 57.57276 | -68.26191 | 34253 ft | 474 kts | 254° |
| 2026-04-22 15:05 | 57.55990 | -68.38261 | 34249 ft | 475 kts | 254° |
| 2026-04-22 15:06 | 57.54691 | -68.50319 | 34277 ft | 475 kts | 255° |
| 2026-04-22 15:06 | 57.53386 | -68.62325 | 34260 ft | 475 kts | 255° |
| 2026-04-22 15:07 | 57.52064 | -68.74377 | 34248 ft | 475 kts | 254° |
| 2026-04-22 15:07 | 57.50730 | -68.86425 | 34244 ft | 475 kts | 254° |
| 2026-04-22 15:08 | 57.49384 | -68.98467 | 34246 ft | 476 kts | 254° |
| 2026-04-22 15:08 | 57.48026 | -69.10506 | 34248 ft | 476 kts | 254° |
| 2026-04-22 15:09 | 57.46664 | -69.22469 | 34261 ft | 476 kts | 255° |
| 2026-04-22 15:09 | 57.45281 | -69.34514 | 34257 ft | 477 kts | 255° |
| 2026-04-22 15:10 | 57.43883 | -69.46563 | 34243 ft | 477 kts | 254° |
| 2026-04-22 15:10 | 57.42474 | -69.58614 | 34247 ft | 477 kts | 254° |
| 2026-04-22 15:11 | 57.41052 | -69.70662 | 34236 ft | 477 kts | 254° |
| 2026-04-22 15:11 | 57.39621 | -69.82682 | 34240 ft | 477 kts | 254° |
| 2026-04-22 15:12 | 57.38175 | -69.94728 | 34235 ft | 478 kts | 255° |
| 2026-04-22 15:12 | 57.36718 | -70.06756 | 34228 ft | 479 kts | 255° |
| 2026-04-22 15:13 | 57.35258 | -70.18702 | 34240 ft | 479 kts | 255° |
| 2026-04-22 15:13 | 57.33774 | -70.30736 | 34244 ft | 479 kts | 254° |
| 2026-04-22 15:14 | 57.32280 | -70.42764 | 34238 ft | 479 kts | 254° |
| 2026-04-22 15:14 | 57.30772 | -70.54794 | 34221 ft | 479 kts | 254° |
| 2026-04-22 15:15 | 57.29253 | -70.66806 | 34221 ft | 480 kts | 255° |
| 2026-04-22 15:15 | 57.27731 | -70.78747 | 34219 ft | 480 kts | 254° |
| 2026-04-22 15:16 | 57.26186 | -70.90768 | 34211 ft | 480 kts | 254° |
| 2026-04-22 15:16 | 57.24630 | -71.02774 | 34201 ft | 481 kts | 254° |
| 2026-04-22 15:17 | 57.23061 | -71.14783 | 34185 ft | 481 kts | 254° |
| 2026-04-22 15:17 | 57.21483 | -71.26769 | 34193 ft | 480 kts | 254° |
| 2026-04-22 15:18 | 57.19891 | -71.38757 | 34186 ft | 480 kts | 254° |
| 2026-04-22 15:18 | 57.18299 | -71.50647 | 34176 ft | 480 kts | 254° |
| 2026-04-22 15:19 | 57.16688 | -71.62590 | 34182 ft | 480 kts | 253° |
| 2026-04-22 15:19 | 57.15065 | -71.74531 | 34179 ft | 480 kts | 253° |
| 2026-04-22 15:20 | 57.13429 | -71.86466 | 34169 ft | 480 kts | 253° |
| 2026-04-22 15:20 | 57.11786 | -71.98361 | 34181 ft | 480 kts | 253° |
| 2026-04-22 15:21 | 57.10139 | -72.10189 | 34168 ft | 481 kts | 253° |
| 2026-04-22 15:21 | 57.08468 | -72.22109 | 34159 ft | 481 kts | 253° |
| 2026-04-22 15:22 | 57.06783 | -72.34030 | 34149 ft | 482 kts | 253° |
| 2026-04-22 15:22 | 57.05087 | -72.45935 | 34154 ft | 482 kts | 253° |
| 2026-04-22 15:23 | 57.03379 | -72.57840 | 34139 ft | 482 kts | 253° |
| 2026-04-22 15:23 | 57.01661 | -72.69726 | 34157 ft | 482 kts | 253° |
| 2026-04-22 15:24 | 56.99931 | -72.81606 | 34132 ft | 482 kts | 253° |
| 2026-04-22 15:24 | 56.98189 | -72.93473 | 34130 ft | 482 kts | 253° |
| 2026-04-22 15:25 | 56.96451 | -73.05235 | 34122 ft | 481 kts | 253° |
| 2026-04-22 15:25 | 56.94686 | -73.17090 | 34114 ft | 481 kts | 253° |
| 2026-04-22 15:26 | 56.92910 | -73.28926 | 34113 ft | 481 kts | 252° |
| 2026-04-22 15:26 | 56.91138 | -73.40659 | 34107 ft | 481 kts | 252° |
| 2026-04-22 15:27 | 56.89344 | -73.52450 | 34092 ft | 481 kts | 252° |
| 2026-04-22 15:27 | 56.87540 | -73.64223 | 34089 ft | 481 kts | 252° |
| 2026-04-22 15:28 | 56.85724 | -73.75992 | 34086 ft | 481 kts | 252° |
| 2026-04-22 15:28 | 56.83897 | -73.87741 | 34081 ft | 481 kts | 252° |
| 2026-04-22 15:29 | 56.82060 | -73.99480 | 34073 ft | 480 kts | 252° |
| 2026-04-22 15:30 | 56.79595 | -74.15099 | 34068 ft | 481 kts | 252° |
| 2026-04-22 15:30 | 56.77735 | -74.26804 | 34060 ft | 480 kts | 252° |
| 2026-04-22 15:31 | 56.75862 | -74.38495 | 34068 ft | 480 kts | 252° |
| 2026-04-22 15:31 | 56.73980 | -74.50171 | 34053 ft | 480 kts | 252° |
| 2026-04-22 15:32 | 56.72088 | -74.61819 | 34053 ft | 480 kts | 252° |
| 2026-04-22 15:32 | 56.70196 | -74.73396 | 34047 ft | 479 kts | 252° |
| 2026-04-22 15:33 | 56.68280 | -74.85041 | 34043 ft | 479 kts | 252° |
| 2026-04-22 15:33 | 56.66368 | -74.96589 | 34032 ft | 478 kts | 252° |
| 2026-04-22 15:34 | 56.64441 | -75.08143 | 34032 ft | 478 kts | 252° |
| 2026-04-22 15:34 | 56.62505 | -75.19682 | 34034 ft | 477 kts | 252° |
| 2026-04-22 15:35 | 56.60554 | -75.31227 | 34022 ft | 477 kts | 252° |
| 2026-04-22 15:35 | 56.58595 | -75.42753 | 34028 ft | 477 kts | 252° |
| 2026-04-22 15:36 | 56.56638 | -75.54189 | 34023 ft | 477 kts | 252° |
| 2026-04-22 15:36 | 56.54657 | -75.65692 | 34011 ft | 477 kts | 252° |
| 2026-04-22 15:37 | 56.52667 | -75.77175 | 34017 ft | 477 kts | 252° |
| 2026-04-22 15:37 | 56.50663 | -75.88660 | 34009 ft | 478 kts | 252° |
| 2026-04-22 15:38 | 56.48651 | -76.00124 | 34003 ft | 478 kts | 252° |
| 2026-04-22 15:38 | 56.45616 | -76.17281 | 33998 ft | 479 kts | 252° |
| 2026-04-22 15:39 | 56.43572 | -76.28744 | 34000 ft | 479 kts | 252° |
| 2026-04-22 15:39 | 56.41514 | -76.40211 | 33994 ft | 480 kts | 252° |
| 2026-04-22 15:40 | 56.39460 | -76.51591 | 33996 ft | 479 kts | 252° |
| 2026-04-22 15:40 | 56.37379 | -76.63043 | 33992 ft | 479 kts | 252° |
| 2026-04-22 15:41 | 56.35292 | -76.74464 | 34006 ft | 478 kts | 252° |
| 2026-04-22 15:41 | 56.33200 | -76.85839 | 34012 ft | 477 kts | 252° |
| 2026-04-22 15:42 | 56.31104 | -76.97172 | 34024 ft | 476 kts | 252° |
| 2026-04-22 15:42 | 56.29010 | -77.08423 | 34021 ft | 476 kts | 252° |
| 2026-04-22 15:43 | 56.26895 | -77.19720 | 34023 ft | 476 kts | 252° |
| 2026-04-22 15:43 | 56.24770 | -77.31002 | 34019 ft | 476 kts | 251° |
| 2026-04-22 15:44 | 56.22635 | -77.42268 | 34018 ft | 475 kts | 252° |
| 2026-04-22 15:44 | 56.20508 | -77.53430 | 34010 ft | 475 kts | 252° |
| 2026-04-22 15:45 | 56.18356 | -77.64656 | 34013 ft | 475 kts | 252° |
| 2026-04-22 15:45 | 56.16192 | -77.75879 | 34014 ft | 475 kts | 251° |
| 2026-04-22 15:46 | 56.14029 | -77.87033 | 34017 ft | 475 kts | 251° |
| 2026-04-22 15:46 | 56.11844 | -77.98232 | 34016 ft | 476 kts | 251° |
| 2026-04-22 15:47 | 56.09648 | -78.09425 | 34013 ft | 476 kts | 251° |
| 2026-04-22 15:47 | 56.07443 | -78.20601 | 34014 ft | 476 kts | 251° |
| 2026-04-22 15:48 | 56.05228 | -78.31765 | 34017 ft | 476 kts | 251° |
| 2026-04-22 15:48 | 56.03000 | -78.42928 | 34000 ft | 476 kts | 251° |
| 2026-04-22 15:49 | 56.00765 | -78.54062 | 34017 ft | 475 kts | 251° |
| 2026-04-22 15:49 | 55.98521 | -78.65175 | 34021 ft | 475 kts | 252° |
| 2026-04-22 15:50 | 55.96283 | -78.76204 | 34017 ft | 475 kts | 252° |
| 2026-04-22 15:50 | 55.94027 | -78.87260 | 34021 ft | 474 kts | 251° |
| 2026-04-22 15:51 | 55.91763 | -78.98289 | 34023 ft | 473 kts | 251° |
| 2026-04-22 15:51 | 55.89487 | -79.09316 | 34026 ft | 473 kts | 251° |
| 2026-04-22 15:52 | 55.87203 | -79.20326 | 34025 ft | 473 kts | 251° |
| 2026-04-22 15:52 | 55.84912 | -79.31304 | 34024 ft | 473 kts | 252° |
| 2026-04-22 15:53 | 55.82615 | -79.42254 | 34022 ft | 472 kts | 252° |
| 2026-04-22 15:53 | 55.80325 | -79.53116 | 34031 ft | 471 kts | 252° |
| 2026-04-22 15:54 | 55.78012 | -79.64024 | 34029 ft | 471 kts | 252° |
| 2026-04-22 15:54 | 55.75695 | -79.74897 | 34030 ft | 471 kts | 252° |
| 2026-04-22 15:55 | 55.73366 | -79.85773 | 34030 ft | 471 kts | 251° |
| 2026-04-22 15:55 | 55.71025 | -79.96628 | 34036 ft | 471 kts | 251° |
| 2026-04-22 15:56 | 55.68058 | -80.07048 | 34187 ft | 477 kts | 242° |
| 2026-04-22 15:56 | 55.66353 | -80.12097 | 34477 ft | 477 kts | 242° |
| 2026-04-22 15:56 | 55.64674 | -80.17066 | 34784 ft | 475 kts | 242° |
| 2026-04-22 15:57 | 55.62981 | -80.22083 | 35075 ft | 474 kts | 242° |
| 2026-04-22 15:57 | 55.61296 | -80.27094 | 35357 ft | 474 kts | 242° |
| 2026-04-22 15:57 | 55.59610 | -80.32119 | 35582 ft | 474 kts | 242° |
| 2026-04-22 15:57 | 55.57923 | -80.37150 | 35705 ft | 478 kts | 242° |
| 2026-04-22 15:58 | 55.54502 | -80.47343 | 35875 ft | 483 kts | 242° |
| 2026-04-22 15:58 | 55.51088 | -80.57462 | 36008 ft | 478 kts | 242° |
| 2026-04-22 15:59 | 55.47697 | -80.67464 | 36051 ft | 473 kts | 242° |
| 2026-04-22 15:59 | 55.44314 | -80.77411 | 36056 ft | 472 kts | 242° |
| 2026-04-22 16:00 | 55.40930 | -80.87320 | 36053 ft | 471 kts | 242° |
| 2026-04-22 16:00 | 55.37543 | -80.97199 | 36082 ft | 471 kts | 242° |
| 2026-04-22 16:01 | 55.34137 | -81.07091 | 36069 ft | 472 kts | 242° |
| 2026-04-22 16:01 | 55.30745 | -81.16902 | 36075 ft | 473 kts | 242° |
| 2026-04-22 16:02 | 55.27316 | -81.26778 | 36079 ft | 474 kts | 242° |
| 2026-04-22 16:02 | 55.23875 | -81.36650 | 36074 ft | 475 kts | 242° |
| 2026-04-22 16:03 | 55.20424 | -81.46509 | 36069 ft | 474 kts | 243° |
| 2026-04-22 16:03 | 55.16964 | -81.56355 | 36084 ft | 474 kts | 243° |
| 2026-04-22 16:04 | 55.13501 | -81.66170 | 36089 ft | 474 kts | 242° |
| 2026-04-22 16:04 | 55.10034 | -81.75958 | 36075 ft | 473 kts | 242° |
| 2026-04-22 16:05 | 55.06564 | -81.85714 | 36090 ft | 473 kts | 243° |
| 2026-04-22 16:05 | 55.03105 | -81.95401 | 36100 ft | 472 kts | 243° |
| 2026-04-22 16:06 | 54.99625 | -82.05110 | 36084 ft | 472 kts | 243° |
| 2026-04-22 16:06 | 54.96140 | -82.14792 | 36109 ft | 471 kts | 243° |
| 2026-04-22 16:07 | 54.92674 | -82.24385 | 36112 ft | 471 kts | 243° |
| 2026-04-22 16:07 | 54.89181 | -82.34016 | 36114 ft | 471 kts | 243° |
| 2026-04-22 16:08 | 54.85679 | -82.43632 | 36114 ft | 470 kts | 243° |
| 2026-04-22 16:08 | 54.82174 | -82.53223 | 36124 ft | 470 kts | 243° |
| 2026-04-22 16:09 | 54.78665 | -82.62785 | 36134 ft | 470 kts | 243° |
| 2026-04-22 16:09 | 54.75150 | -82.72324 | 36126 ft | 469 kts | 243° |
| 2026-04-22 16:10 | 54.71656 | -82.81773 | 36136 ft | 469 kts | 243° |
| 2026-04-22 16:10 | 54.68130 | -82.91269 | 36141 ft | 469 kts | 243° |
| 2026-04-22 16:11 | 54.64593 | -83.00761 | 36122 ft | 469 kts | 243° |
| 2026-04-22 16:11 | 54.61056 | -83.10213 | 36138 ft | 468 kts | 243° |
| 2026-04-22 16:12 | 54.57513 | -83.19649 | 36142 ft | 468 kts | 243° |
| 2026-04-22 16:12 | 54.53970 | -83.29045 | 36146 ft | 467 kts | 243° |
| 2026-04-22 16:13 | 54.50440 | -83.38374 | 36148 ft | 467 kts | 243° |
| 2026-04-22 16:13 | 54.46886 | -83.47733 | 36149 ft | 467 kts | 243° |
| 2026-04-22 16:14 | 54.43325 | -83.57073 | 36150 ft | 467 kts | 243° |
| 2026-04-22 16:14 | 54.39756 | -83.66398 | 36151 ft | 466 kts | 243° |
| 2026-04-22 16:15 | 54.36207 | -83.75638 | 36152 ft | 466 kts | 243° |
| 2026-04-22 16:15 | 54.32638 | -83.84893 | 36138 ft | 465 kts | 244° |
| 2026-04-22 16:16 | 54.29066 | -83.94123 | 36147 ft | 464 kts | 243° |
| 2026-04-22 16:16 | 54.25492 | -84.03325 | 36153 ft | 464 kts | 243° |
| 2026-04-22 16:17 | 54.21915 | -84.12501 | 36156 ft | 464 kts | 243° |
| 2026-04-22 16:17 | 54.18325 | -84.21677 | 36157 ft | 464 kts | 243° |
| 2026-04-22 16:18 | 54.15340 | -84.29279 | 36164 ft | 464 kts | 243° |
| 2026-04-22 16:18 | 54.11148 | -84.39917 | 36133 ft | 464 kts | 243° |
| 2026-04-22 16:19 | 54.08125 | -84.47560 | 36160 ft | 464 kts | 243° |
| 2026-04-22 16:19 | 54.04532 | -84.56614 | 36164 ft | 464 kts | 243° |
| 2026-04-22 16:20 | 54.00916 | -84.65695 | 36166 ft | 464 kts | 243° |
| 2026-04-22 16:20 | 53.97289 | -84.74769 | 36177 ft | 464 kts | 243° |
| 2026-04-22 16:21 | 53.93659 | -84.83816 | 36162 ft | 463 kts | 243° |
| 2026-04-22 16:21 | 53.90023 | -84.92845 | 36168 ft | 463 kts | 243° |
| 2026-04-22 16:22 | 53.84571 | -85.06324 | 36165 ft | 461 kts | 244° |
| 2026-04-22 16:23 | 53.79145 | -85.19669 | 36178 ft | 460 kts | 244° |
| 2026-04-22 16:23 | 53.75505 | -85.28583 | 36179 ft | 460 kts | 243° |
| 2026-04-22 16:24 | 53.70036 | -85.41914 | 36176 ft | 459 kts | 244° |
| 2026-04-22 16:25 | 53.66394 | -85.50756 | 36185 ft | 459 kts | 244° |
| 2026-04-22 16:25 | 53.60918 | -85.63984 | 36172 ft | 457 kts | 244° |
| 2026-04-22 16:26 | 53.57294 | -85.72703 | 36180 ft | 457 kts | 244° |
| 2026-04-22 16:26 | 53.53642 | -85.81461 | 36178 ft | 457 kts | 244° |
| 2026-04-22 16:27 | 53.49984 | -85.90200 | 36169 ft | 456 kts | 244° |
| 2026-04-22 16:27 | 53.46329 | -85.98900 | 36171 ft | 455 kts | 244° |
| 2026-04-22 16:28 | 53.42696 | -86.07520 | 36180 ft | 454 kts | 244° |
| 2026-04-22 16:28 | 53.39043 | -86.16162 | 36183 ft | 454 kts | 244° |
| 2026-04-22 16:29 | 53.35378 | -86.24799 | 36175 ft | 454 kts | 244° |
| 2026-04-22 16:29 | 53.31713 | -86.33406 | 36181 ft | 454 kts | 244° |
| 2026-04-22 16:30 | 53.28068 | -86.41939 | 36146 ft | 454 kts | 244° |
| 2026-04-22 16:30 | 53.24393 | -86.50508 | 36168 ft | 453 kts | 244° |
| 2026-04-22 16:31 | 53.20718 | -86.59051 | 36175 ft | 452 kts | 244° |
| 2026-04-22 16:31 | 53.17057 | -86.67532 | 36166 ft | 450 kts | 245° |
| 2026-04-22 16:32 | 53.13393 | -86.75992 | 36165 ft | 449 kts | 244° |
| 2026-04-22 16:32 | 53.09755 | -86.84368 | 36168 ft | 449 kts | 244° |
| 2026-04-22 16:33 | 53.06092 | -86.92773 | 36172 ft | 449 kts | 244° |
| 2026-04-22 16:33 | 53.02427 | -87.01153 | 36177 ft | 448 kts | 244° |
| 2026-04-22 16:34 | 52.98762 | -87.09505 | 36171 ft | 447 kts | 244° |
| 2026-04-22 16:34 | 52.95092 | -87.17841 | 36167 ft | 447 kts | 245° |
| 2026-04-22 16:35 | 52.91421 | -87.26153 | 36161 ft | 447 kts | 245° |
| 2026-04-22 16:35 | 52.87746 | -87.34449 | 36169 ft | 447 kts | 245° |
| 2026-04-22 16:36 | 52.84058 | -87.42745 | 36165 ft | 447 kts | 244° |
| 2026-04-22 16:36 | 52.80364 | -87.51024 | 36145 ft | 447 kts | 245° |
| 2026-04-22 16:37 | 52.76668 | -87.59280 | 36158 ft | 446 kts | 245° |
| 2026-04-22 16:37 | 52.72999 | -87.67452 | 36132 ft | 445 kts | 245° |
| 2026-04-22 16:38 | 52.69309 | -87.75640 | 36152 ft | 444 kts | 245° |
| 2026-04-22 16:38 | 52.65618 | -87.83809 | 36157 ft | 443 kts | 245° |
| 2026-04-22 16:39 | 52.61928 | -87.91952 | 36155 ft | 443 kts | 245° |
| 2026-04-22 16:39 | 52.58238 | -88.00070 | 36157 ft | 443 kts | 245° |
| 2026-04-22 16:40 | 52.54550 | -88.08150 | 36135 ft | 442 kts | 245° |
| 2026-04-22 16:41 | 52.49036 | -88.20187 | 36131 ft | 440 kts | 245° |
| 2026-04-22 16:41 | 52.45346 | -88.28216 | 36138 ft | 441 kts | 245° |
| 2026-04-22 16:42 | 52.41643 | -88.36249 | 36145 ft | 441 kts | 245° |
| 2026-04-22 16:42 | 52.37925 | -88.44285 | 36141 ft | 443 kts | 245° |
| 2026-04-22 16:43 | 52.34200 | -88.52312 | 36105 ft | 444 kts | 245° |
| 2026-04-22 16:43 | 52.30491 | -88.60274 | 36129 ft | 443 kts | 245° |
| 2026-04-22 16:44 | 52.26753 | -88.68274 | 36103 ft | 443 kts | 244° |
| 2026-04-22 16:44 | 52.23013 | -88.76256 | 36125 ft | 442 kts | 244° |
| 2026-04-22 16:45 | 52.19269 | -88.84221 | 36124 ft | 442 kts | 244° |
| 2026-04-22 16:45 | 52.15520 | -88.92172 | 36121 ft | 442 kts | 244° |
| 2026-04-22 16:46 | 52.11766 | -89.00111 | 36122 ft | 442 kts | 244° |
| 2026-04-22 16:46 | 52.08030 | -89.07983 | 36107 ft | 441 kts | 244° |
| 2026-04-22 16:47 | 52.04280 | -89.15862 | 36073 ft | 440 kts | 244° |
| 2026-04-22 16:47 | 52.01161 | -89.22393 | 36103 ft | 438 kts | 243° |
| 2026-04-22 16:48 | 51.96800 | -89.31506 | 36102 ft | 437 kts | 243° |
| 2026-04-22 16:48 | 51.93066 | -89.39284 | 36101 ft | 437 kts | 243° |
| 2026-04-22 16:49 | 51.89326 | -89.47049 | 36083 ft | 437 kts | 243° |
| 2026-04-22 16:49 | 51.85605 | -89.54753 | 36090 ft | 437 kts | 243° |
| 2026-04-22 16:50 | 51.81849 | -89.62503 | 36080 ft | 438 kts | 243° |
| 2026-04-22 16:50 | 51.78085 | -89.70246 | 36076 ft | 437 kts | 243° |
| 2026-04-22 16:51 | 51.74319 | -89.77968 | 36082 ft | 438 kts | 243° |
| 2026-04-22 16:51 | 51.70546 | -89.85681 | 36077 ft | 438 kts | 243° |
| 2026-04-22 16:52 | 51.66763 | -89.93395 | 36065 ft | 438 kts | 243° |
| 2026-04-22 16:52 | 51.62974 | -90.01097 | 36003 ft | 438 kts | 242° |
| 2026-04-22 16:53 | 51.59203 | -90.08738 | 36018 ft | 438 kts | 242° |
| 2026-04-22 16:53 | 51.55407 | -90.16408 | 35987 ft | 438 kts | 242° |
| 2026-04-22 16:54 | 51.51602 | -90.24074 | 36003 ft | 439 kts | 242° |
| 2026-04-22 16:54 | 51.47780 | -90.31752 | 36005 ft | 441 kts | 241° |
| 2026-04-22 16:55 | 51.43944 | -90.39434 | 36003 ft | 442 kts | 241° |
| 2026-04-22 16:55 | 51.40091 | -90.47126 | 36031 ft | 442 kts | 241° |
| 2026-04-22 16:56 | 51.36231 | -90.54807 | 36019 ft | 442 kts | 241° |
| 2026-04-22 16:56 | 51.32374 | -90.62457 | 35999 ft | 441 kts | 240° |
| 2026-04-22 16:57 | 51.28520 | -90.70082 | 36028 ft | 440 kts | 240° |
| 2026-04-22 16:57 | 51.24686 | -90.77646 | 36033 ft | 440 kts | 240° |
| 2026-04-22 16:58 | 51.21455 | -90.84005 | 36023 ft | 440 kts | 240° |
| 2026-04-22 16:58 | 51.16966 | -90.92810 | 36031 ft | 440 kts | 240° |
| 2026-04-22 16:59 | 51.13096 | -91.00378 | 36014 ft | 440 kts | 240° |
| 2026-04-22 16:59 | 51.09253 | -91.07871 | 36022 ft | 439 kts | 240° |
| 2026-04-22 17:00 | 51.05383 | -91.15395 | 36016 ft | 439 kts | 240° |
| 2026-04-22 17:00 | 50.99569 | -91.26656 | 36018 ft | 439 kts | 240° |
| 2026-04-22 17:01 | 50.95689 | -91.34146 | 36006 ft | 439 kts | 240° |
| 2026-04-22 17:01 | 50.91825 | -91.41581 | 35978 ft | 439 kts | 239° |
| 2026-04-22 17:02 | 50.87938 | -91.49040 | 36000 ft | 439 kts | 239° |
| 2026-04-22 17:02 | 50.84040 | -91.56498 | 35987 ft | 438 kts | 239° |
| 2026-04-22 17:03 | 50.80147 | -91.63926 | 35997 ft | 439 kts | 239° |
| 2026-04-22 17:03 | 50.76239 | -91.71363 | 35991 ft | 440 kts | 239° |
| 2026-04-22 17:04 | 50.72318 | -91.78800 | 35991 ft | 441 kts | 239° |
| 2026-04-22 17:04 | 50.68409 | -91.86194 | 35988 ft | 441 kts | 239° |
| 2026-04-22 17:05 | 50.64467 | -91.93627 | 35982 ft | 441 kts | 238° |
| 2026-04-22 17:05 | 50.60522 | -92.01044 | 35977 ft | 441 kts | 238° |
| 2026-04-22 17:06 | 50.56579 | -92.08439 | 35971 ft | 441 kts | 238° |
| 2026-04-22 17:06 | 50.52646 | -92.15791 | 35975 ft | 441 kts | 238° |
| 2026-04-22 17:07 | 50.48693 | -92.23162 | 35967 ft | 441 kts | 238° |
| 2026-04-22 17:07 | 50.44737 | -92.30518 | 35973 ft | 441 kts | 238° |
| 2026-04-22 17:08 | 50.41440 | -92.36631 | 35964 ft | 440 kts | 238° |
| 2026-04-22 17:08 | 50.36833 | -92.45150 | 35949 ft | 440 kts | 237° |
| 2026-04-22 17:09 | 50.33512 | -92.51272 | 35959 ft | 440 kts | 237° |
| 2026-04-22 17:09 | 50.29541 | -92.58577 | 35948 ft | 441 kts | 237° |
| 2026-04-22 17:10 | 50.25585 | -92.65834 | 35950 ft | 441 kts | 237° |
| 2026-04-22 17:10 | 50.21599 | -92.73124 | 35954 ft | 441 kts | 237° |
| 2026-04-22 17:11 | 50.17606 | -92.80406 | 35930 ft | 441 kts | 237° |
| 2026-04-22 17:11 | 50.13603 | -92.87684 | 35933 ft | 441 kts | 237° |
| 2026-04-22 17:12 | 50.09600 | -92.94943 | 35926 ft | 442 kts | 237° |
| 2026-04-22 17:12 | 50.05589 | -93.02199 | 35930 ft | 442 kts | 236° |
| 2026-04-22 17:13 | 50.01597 | -93.09398 | 35929 ft | 442 kts | 236° |
| 2026-04-22 17:13 | 49.97571 | -93.16637 | 35922 ft | 442 kts | 236° |
| 2026-04-22 17:14 | 49.93540 | -93.23864 | 35920 ft | 442 kts | 236° |
| 2026-04-22 17:14 | 49.89512 | -93.31067 | 35906 ft | 441 kts | 236° |
| 2026-04-22 17:15 | 49.85491 | -93.38239 | 35909 ft | 440 kts | 236° |
| 2026-04-22 17:15 | 49.81465 | -93.45400 | 35906 ft | 440 kts | 236° |
| 2026-04-22 17:16 | 49.77435 | -93.52547 | 35905 ft | 440 kts | 236° |
| 2026-04-22 17:16 | 49.73432 | -93.59629 | 35901 ft | 440 kts | 236° |
| 2026-04-22 17:17 | 49.69393 | -93.66754 | 35888 ft | 440 kts | 235° |
| 2026-04-22 17:17 | 49.65362 | -93.73845 | 35884 ft | 439 kts | 235° |
| 2026-04-22 17:18 | 49.61330 | -93.80920 | 35887 ft | 439 kts | 235° |
| 2026-04-22 17:18 | 49.57296 | -93.87978 | 35888 ft | 439 kts | 235° |
| 2026-04-22 17:19 | 49.49230 | -94.02039 | 35879 ft | 439 kts | 235° |
| 2026-04-22 17:20 | 49.42048 | -94.16972 | 35864 ft | 433 kts | 241° |
| 2026-04-22 17:21 | 49.36830 | -94.28347 | 35867 ft | 435 kts | 241° |
| 2026-04-22 17:22 | 49.31602 | -94.39659 | 35870 ft | 436 kts | 240° |
| 2026-04-22 17:23 | 49.26327 | -94.51021 | 35863 ft | 436 kts | 240° |
| 2026-04-22 17:23 | 49.21040 | -94.62361 | 35837 ft | 436 kts | 240° |
| 2026-04-22 17:24 | 49.17516 | -94.69892 | 35845 ft | 436 kts | 240° |
| 2026-04-22 17:24 | 49.13982 | -94.77425 | 35851 ft | 436 kts | 240° |
| 2026-04-22 17:25 | 49.10446 | -94.84941 | 35839 ft | 436 kts | 240° |
| 2026-04-22 17:25 | 49.06919 | -94.92417 | 35835 ft | 436 kts | 239° |
| 2026-04-22 17:26 | 49.03371 | -94.99915 | 35825 ft | 436 kts | 239° |
| 2026-04-22 17:26 | 48.99815 | -95.07409 | 35823 ft | 436 kts | 239° |
| 2026-04-22 17:27 | 48.96256 | -95.14890 | 35794 ft | 436 kts | 239° |
| 2026-04-22 17:27 | 48.92692 | -95.22360 | 35817 ft | 436 kts | 239° |
| 2026-04-22 17:28 | 48.89145 | -95.29774 | 35815 ft | 436 kts | 239° |
| 2026-04-22 17:28 | 48.85576 | -95.37214 | 35822 ft | 436 kts | 239° |
| 2026-04-22 17:29 | 48.81996 | -95.44655 | 35819 ft | 436 kts | 238° |
| 2026-04-22 17:29 | 48.78410 | -95.52089 | 35810 ft | 436 kts | 238° |
| 2026-04-22 17:30 | 48.74816 | -95.59518 | 35810 ft | 436 kts | 238° |
| 2026-04-22 17:30 | 48.71222 | -95.66928 | 35799 ft | 436 kts | 238° |
| 2026-04-22 17:31 | 48.67645 | -95.74283 | 35802 ft | 436 kts | 238° |
| 2026-04-22 17:31 | 48.64040 | -95.81672 | 35799 ft | 436 kts | 238° |
| 2026-04-22 17:32 | 48.60436 | -95.89041 | 35793 ft | 436 kts | 238° |
| 2026-04-22 17:32 | 48.56829 | -95.96395 | 35791 ft | 436 kts | 238° |
| 2026-04-22 17:33 | 48.53212 | -96.03751 | 35793 ft | 435 kts | 238° |
| 2026-04-22 17:33 | 48.49599 | -96.11079 | 35781 ft | 435 kts | 237° |
| 2026-04-22 17:34 | 48.45979 | -96.18401 | 35791 ft | 435 kts | 237° |
| 2026-04-22 17:34 | 48.42379 | -96.25663 | 35774 ft | 436 kts | 237° |
| 2026-04-22 17:35 | 48.38745 | -96.32972 | 35780 ft | 436 kts | 237° |
| 2026-04-22 17:35 | 48.35100 | -96.40286 | 35773 ft | 436 kts | 237° |
| 2026-04-22 17:36 | 48.31452 | -96.47585 | 35787 ft | 436 kts | 237° |
| 2026-04-22 17:36 | 48.27796 | -96.54880 | 35779 ft | 437 kts | 237° |
| 2026-04-22 17:37 | 48.24158 | -96.62120 | 35755 ft | 436 kts | 237° |
| 2026-04-22 17:37 | 48.20499 | -96.69382 | 35764 ft | 436 kts | 237° |
| 2026-04-22 17:38 | 48.16833 | -96.76640 | 35766 ft | 436 kts | 236° |
| 2026-04-22 17:38 | 48.13166 | -96.83880 | 35755 ft | 436 kts | 236° |
| 2026-04-22 17:39 | 48.09491 | -96.91116 | 35760 ft | 436 kts | 236° |
| 2026-04-22 17:40 | 48.04000 | -97.01894 | 35757 ft | 436 kts | 236° |
| 2026-04-22 17:40 | 48.00321 | -97.09091 | 35743 ft | 436 kts | 236° |
| 2026-04-22 17:41 | 47.96640 | -97.16277 | 35756 ft | 436 kts | 236° |
| 2026-04-22 17:41 | 47.92994 | -97.23491 | 35761 ft | 435 kts | 237° |
| 2026-04-22 17:42 | 47.89421 | -97.30774 | 35740 ft | 436 kts | 237° |
| 2026-04-22 17:42 | 47.86448 | -97.36837 | 35741 ft | 436 kts | 237° |
| 2026-04-22 17:43 | 47.82253 | -97.45338 | 35741 ft | 436 kts | 237° |
| 2026-04-22 17:43 | 47.78648 | -97.52605 | 35740 ft | 436 kts | 236° |
| 2026-04-22 17:44 | 47.75040 | -97.59854 | 35718 ft | 436 kts | 236° |
| 2026-04-22 17:44 | 47.71449 | -97.67052 | 35735 ft | 436 kts | 236° |
| 2026-04-22 17:45 | 47.67823 | -97.74298 | 35733 ft | 437 kts | 236° |
| 2026-04-22 17:45 | 47.64188 | -97.81545 | 35732 ft | 438 kts | 236° |
| 2026-04-22 17:46 | 47.60552 | -97.88776 | 35728 ft | 438 kts | 236° |
| 2026-04-22 17:46 | 47.56895 | -97.96028 | 35727 ft | 438 kts | 236° |
| 2026-04-22 17:47 | 47.53240 | -98.03257 | 35725 ft | 439 kts | 236° |
| 2026-04-22 17:47 | 47.49603 | -98.10432 | 35715 ft | 438 kts | 236° |
| 2026-04-22 17:48 | 47.46554 | -98.16431 | 35720 ft | 439 kts | 236° |
| 2026-04-22 17:48 | 47.42259 | -98.24863 | 35724 ft | 439 kts | 236° |
| 2026-04-22 17:49 | 47.38580 | -98.32063 | 35718 ft | 439 kts | 236° |
| 2026-04-22 17:49 | 47.34919 | -98.39210 | 35715 ft | 439 kts | 235° |
| 2026-04-22 17:50 | 47.31230 | -98.46391 | 35708 ft | 439 kts | 235° |
| 2026-04-22 17:50 | 47.27537 | -98.53563 | 35697 ft | 438 kts | 235° |
| 2026-04-22 17:51 | 47.23844 | -98.60717 | 35703 ft | 438 kts | 235° |
| 2026-04-22 17:51 | 47.20168 | -98.67817 | 35702 ft | 438 kts | 235° |
| 2026-04-22 17:52 | 47.16469 | -98.74946 | 35702 ft | 439 kts | 234° |
| 2026-04-22 17:52 | 47.12764 | -98.82067 | 35692 ft | 439 kts | 234° |
| 2026-04-22 17:53 | 47.09049 | -98.89189 | 35703 ft | 439 kts | 234° |
| 2026-04-22 17:53 | 47.05330 | -98.96298 | 35700 ft | 439 kts | 234° |
| 2026-04-22 17:54 | 47.01629 | -99.03356 | 35683 ft | 439 kts | 234° |
| 2026-04-22 17:54 | 46.97904 | -99.10443 | 35689 ft | 439 kts | 233° |
| 2026-04-22 17:55 | 46.94776 | -99.16380 | 35682 ft | 439 kts | 233° |
| 2026-04-22 17:55 | 46.90434 | -99.24599 | 35665 ft | 439 kts | 233° |
| 2026-04-22 17:56 | 46.86692 | -99.31662 | 35666 ft | 439 kts | 233° |
| 2026-04-22 17:56 | 46.83575 | -99.37533 | 35656 ft | 439 kts | 233° |
| 2026-04-22 17:57 | 46.79212 | -99.45728 | 35663 ft | 439 kts | 233° |
| 2026-04-22 17:57 | 46.75467 | -99.52745 | 35644 ft | 438 kts | 233° |
| 2026-04-22 17:58 | 46.72329 | -99.58610 | 35645 ft | 437 kts | 233° |
| 2026-04-22 17:58 | 46.68585 | -99.65592 | 35637 ft | 437 kts | 233° |
| 2026-04-22 17:59 | 46.64863 | -99.72515 | 35638 ft | 437 kts | 233° |
| 2026-04-22 17:59 | 46.61114 | -99.79473 | 35638 ft | 436 kts | 232° |
| 2026-04-22 18:00 | 46.57368 | -99.86408 | 35628 ft | 435 kts | 232° |
| 2026-04-22 18:00 | 46.53626 | -99.93318 | 35613 ft | 435 kts | 232° |
| 2026-04-22 18:01 | 46.49969 | -100.00302 | 35620 ft | 434 kts | 237° |
| 2026-04-22 18:01 | 46.46991 | -100.07927 | 35626 ft | 434 kts | 242° |
| 2026-04-22 18:02 | 46.44125 | -100.15648 | 35622 ft | 435 kts | 241° |
| 2026-04-22 18:02 | 46.41254 | -100.23309 | 35613 ft | 435 kts | 241° |
| 2026-04-22 18:03 | 46.38348 | -100.31024 | 35611 ft | 436 kts | 241° |
| 2026-04-22 18:03 | 46.35433 | -100.38732 | 35609 ft | 436 kts | 241° |
| 2026-04-22 18:04 | 46.32516 | -100.46428 | 35619 ft | 436 kts | 240° |
| 2026-04-22 18:04 | 46.29595 | -100.54110 | 35607 ft | 435 kts | 240° |
| 2026-04-22 18:05 | 46.26695 | -100.61719 | 35599 ft | 434 kts | 240° |
| 2026-04-22 18:05 | 46.23775 | -100.69358 | 35607 ft | 433 kts | 240° |
| 2026-04-22 18:06 | 46.20864 | -100.76950 | 35598 ft | 432 kts | 240° |
| 2026-04-22 18:06 | 46.17953 | -100.84523 | 35619 ft | 431 kts | 239° |
| 2026-04-22 18:07 | 46.15042 | -100.92074 | 35599 ft | 429 kts | 239° |
| 2026-04-22 18:07 | 46.12136 | -100.99591 | 35594 ft | 428 kts | 239° |
| 2026-04-22 18:08 | 46.09230 | -101.07088 | 35589 ft | 427 kts | 239° |
| 2026-04-22 18:08 | 46.06348 | -101.14504 | 35592 ft | 427 kts | 239° |
| 2026-04-22 18:09 | 46.03441 | -101.21963 | 35590 ft | 427 kts | 239° |
| 2026-04-22 18:09 | 46.00532 | -101.29405 | 35570 ft | 426 kts | 239° |
| 2026-04-22 18:10 | 45.97625 | -101.36825 | 35587 ft | 426 kts | 239° |
| 2026-04-22 18:10 | 45.94730 | -101.44192 | 35590 ft | 426 kts | 239° |
| 2026-04-22 18:11 | 45.91812 | -101.51599 | 35586 ft | 426 kts | 238° |
| 2026-04-22 18:11 | 45.88884 | -101.59009 | 35575 ft | 427 kts | 238° |
| 2026-04-22 18:12 | 45.85948 | -101.66422 | 35577 ft | 427 kts | 238° |
| 2026-04-22 18:12 | 45.83500 | -101.72589 | 35576 ft | 428 kts | 238° |
| 2026-04-22 18:13 | 45.80050 | -101.81254 | 35584 ft | 428 kts | 238° |
| 2026-04-22 18:13 | 45.77086 | -101.88674 | 35582 ft | 428 kts | 238° |
| 2026-04-22 18:14 | 45.74142 | -101.96030 | 35574 ft | 428 kts | 238° |
| 2026-04-22 18:14 | 45.71174 | -102.03423 | 35565 ft | 428 kts | 238° |
| 2026-04-22 18:15 | 45.68200 | -102.10811 | 35569 ft | 428 kts | 238° |
| 2026-04-22 18:15 | 45.65223 | -102.18188 | 35572 ft | 427 kts | 238° |
| 2026-04-22 18:16 | 45.62247 | -102.25543 | 35576 ft | 427 kts | 237° |
| 2026-04-22 18:16 | 45.59285 | -102.32843 | 35562 ft | 427 kts | 237° |
| 2026-04-22 18:17 | 45.56304 | -102.40172 | 35563 ft | 426 kts | 237° |
| 2026-04-22 18:17 | 45.53325 | -102.47477 | 35568 ft | 425 kts | 237° |
| 2026-04-22 18:18 | 45.50345 | -102.54761 | 35579 ft | 425 kts | 237° |
| 2026-04-22 18:18 | 45.47355 | -102.62055 | 35568 ft | 426 kts | 237° |
| 2026-04-22 18:19 | 45.44359 | -102.69343 | 35560 ft | 426 kts | 236° |
| 2026-04-22 18:19 | 45.41357 | -102.76627 | 35568 ft | 426 kts | 236° |
| 2026-04-22 18:20 | 45.38347 | -102.83911 | 35563 ft | 427 kts | 236° |
| 2026-04-22 18:20 | 45.35331 | -102.91191 | 35575 ft | 428 kts | 236° |
| 2026-04-22 18:21 | 45.32322 | -102.98435 | 35562 ft | 429 kts | 236° |
| 2026-04-22 18:21 | 45.29281 | -103.05736 | 35567 ft | 429 kts | 236° |
| 2026-04-22 18:22 | 45.26234 | -103.13035 | 35554 ft | 430 kts | 236° |
| 2026-04-22 18:22 | 45.23177 | -103.20339 | 35557 ft | 430 kts | 236° |
| 2026-04-22 18:23 | 45.20134 | -103.27589 | 35546 ft | 430 kts | 235° |
| 2026-04-22 18:23 | 45.17048 | -103.34921 | 35542 ft | 430 kts | 235° |
| 2026-04-22 18:24 | 45.12455 | -103.45802 | 35542 ft | 430 kts | 235° |
| 2026-04-22 18:25 | 45.07832 | -103.56711 | 35535 ft | 431 kts | 234° |
| 2026-04-22 18:25 | 45.04768 | -103.63919 | 35545 ft | 430 kts | 234° |
| 2026-04-22 18:26 | 45.00126 | -103.74800 | 35517 ft | 430 kts | 234° |
| 2026-04-22 18:26 | 44.97033 | -103.82030 | 35520 ft | 430 kts | 234° |
| 2026-04-22 18:27 | 44.93934 | -103.89254 | 35529 ft | 430 kts | 234° |
| 2026-04-22 18:27 | 44.90828 | -103.96477 | 35502 ft | 430 kts | 234° |
| 2026-04-22 18:28 | 44.87718 | -104.03689 | 35503 ft | 429 kts | 234° |
| 2026-04-22 18:28 | 44.84629 | -104.10837 | 35501 ft | 429 kts | 234° |
| 2026-04-22 18:29 | 44.81521 | -104.18008 | 35508 ft | 429 kts | 234° |
| 2026-04-22 18:29 | 44.78403 | -104.25185 | 35516 ft | 430 kts | 234° |
| 2026-04-22 18:30 | 44.73702 | -104.35968 | 35516 ft | 432 kts | 234° |
| 2026-04-22 18:31 | 44.70551 | -104.43176 | 35521 ft | 433 kts | 234° |
| 2026-04-22 18:31 | 44.67385 | -104.50401 | 35513 ft | 434 kts | 234° |
| 2026-04-22 18:32 | 44.64210 | -104.57627 | 35525 ft | 435 kts | 234° |
| 2026-04-22 18:32 | 44.61047 | -104.64808 | 35518 ft | 435 kts | 234° |
| 2026-04-22 18:33 | 44.57857 | -104.72029 | 35524 ft | 435 kts | 234° |
| 2026-04-22 18:33 | 44.54669 | -104.79231 | 35503 ft | 435 kts | 234° |
| 2026-04-22 18:34 | 44.51480 | -104.86419 | 35526 ft | 434 kts | 233° |
| 2026-04-22 18:34 | 44.48285 | -104.93597 | 35520 ft | 434 kts | 233° |
| 2026-04-22 18:35 | 44.45093 | -105.00753 | 35526 ft | 433 kts | 233° |
| 2026-04-22 18:35 | 44.41898 | -105.07899 | 35537 ft | 433 kts | 233° |
| 2026-04-22 18:36 | 44.38696 | -105.15040 | 35577 ft | 433 kts | 233° |
| 2026-04-22 18:36 | 44.35513 | -105.22123 | 35575 ft | 432 kts | 233° |
| 2026-04-22 18:37 | 44.32318 | -105.29218 | 35594 ft | 430 kts | 233° |
| 2026-04-22 18:37 | 44.29665 | -105.35092 | 35603 ft | 429 kts | 233° |
| 2026-04-22 18:38 | 44.25940 | -105.43321 | 35525 ft | 428 kts | 233° |
| 2026-04-22 18:38 | 44.22754 | -105.50339 | 35536 ft | 428 kts | 234° |
| 2026-04-22 18:39 | 44.17991 | -105.60805 | 35534 ft | 427 kts | 234° |
| 2026-04-22 18:39 | 44.14805 | -105.67783 | 35528 ft | 427 kts | 234° |
| 2026-04-22 18:40 | 44.11615 | -105.74753 | 35533 ft | 427 kts | 233° |
| 2026-04-22 18:40 | 44.08416 | -105.81728 | 35518 ft | 427 kts | 233° |
| 2026-04-22 18:41 | 44.05227 | -105.88665 | 35519 ft | 425 kts | 233° |
| 2026-04-22 18:41 | 44.02041 | -105.95580 | 35522 ft | 423 kts | 233° |
| 2026-04-22 18:42 | 43.98747 | -106.02242 | 35517 ft | 419 kts | 227° |
| 2026-04-22 18:42 | 43.95055 | -106.08494 | 35526 ft | 418 kts | 226° |
| 2026-04-22 18:43 | 43.91375 | -106.14746 | 35519 ft | 418 kts | 226° |
| 2026-04-22 18:43 | 43.87700 | -106.20999 | 35515 ft | 418 kts | 226° |
| 2026-04-22 18:44 | 43.84025 | -106.27248 | 35508 ft | 418 kts | 226° |
| 2026-04-22 18:44 | 43.80962 | -106.32447 | 35498 ft | 419 kts | 226° |
| 2026-04-22 18:45 | 43.77273 | -106.38696 | 35509 ft | 420 kts | 226° |
| 2026-04-22 18:45 | 43.73566 | -106.44959 | 35510 ft | 422 kts | 225° |
| 2026-04-22 18:46 | 43.69842 | -106.51239 | 35507 ft | 423 kts | 225° |
| 2026-04-22 18:46 | 43.66095 | -106.57546 | 35508 ft | 424 kts | 225° |
| 2026-04-22 18:47 | 43.62346 | -106.63843 | 35521 ft | 425 kts | 225° |
| 2026-04-22 18:47 | 43.58611 | -106.70102 | 35555 ft | 425 kts | 225° |
| 2026-04-22 18:48 | 43.54840 | -106.76408 | 35532 ft | 426 kts | 225° |
| 2026-04-22 18:48 | 43.51059 | -106.82716 | 35551 ft | 427 kts | 225° |
| 2026-04-22 18:49 | 43.47262 | -106.89037 | 35552 ft | 429 kts | 225° |
| 2026-04-22 18:49 | 43.43458 | -106.95355 | 35570 ft | 429 kts | 225° |
| 2026-04-22 18:50 | 43.39639 | -107.01686 | 35578 ft | 429 kts | 225° |
| 2026-04-22 18:50 | 43.35816 | -107.08009 | 35592 ft | 430 kts | 225° |
| 2026-04-22 18:51 | 43.31982 | -107.14336 | 35603 ft | 431 kts | 226° |
| 2026-04-22 18:51 | 43.28154 | -107.20641 | 35597 ft | 432 kts | 226° |
| 2026-04-22 18:52 | 43.24298 | -107.26977 | 35601 ft | 433 kts | 226° |
| 2026-04-22 18:52 | 43.20434 | -107.33313 | 35596 ft | 433 kts | 226° |
| 2026-04-22 18:53 | 43.16570 | -107.39635 | 35590 ft | 432 kts | 226° |
| 2026-04-22 18:53 | 43.12702 | -107.45951 | 35602 ft | 433 kts | 226° |
| 2026-04-22 18:54 | 43.08830 | -107.52259 | 35599 ft | 433 kts | 226° |
| 2026-04-22 18:54 | 43.04955 | -107.58558 | 35582 ft | 433 kts | 226° |
| 2026-04-22 18:55 | 43.01075 | -107.64851 | 35594 ft | 432 kts | 226° |
| 2026-04-22 18:55 | 42.97219 | -107.71092 | 35604 ft | 433 kts | 226° |
| 2026-04-22 18:56 | 42.93326 | -107.77379 | 35613 ft | 434 kts | 226° |
| 2026-04-22 18:56 | 42.89419 | -107.83675 | 35624 ft | 435 kts | 226° |
| 2026-04-22 18:57 | 42.85491 | -107.89992 | 35619 ft | 437 kts | 226° |
| 2026-04-22 18:57 | 42.81553 | -107.96312 | 35615 ft | 438 kts | 226° |
| 2026-04-22 18:58 | 42.77605 | -108.02633 | 35607 ft | 438 kts | 226° |
| 2026-04-22 18:58 | 42.73680 | -108.08905 | 35622 ft | 438 kts | 226° |
| 2026-04-22 18:59 | 42.69730 | -108.15205 | 35629 ft | 438 kts | 226° |
| 2026-04-22 18:59 | 42.65769 | -108.21507 | 35640 ft | 438 kts | 226° |
| 2026-04-22 19:00 | 42.61809 | -108.27794 | 35646 ft | 437 kts | 226° |
| 2026-04-22 19:00 | 42.57852 | -108.34062 | 35649 ft | 436 kts | 226° |
| 2026-04-22 19:01 | 42.53918 | -108.40282 | 35657 ft | 436 kts | 226° |
| 2026-04-22 19:01 | 42.49964 | -108.46518 | 35675 ft | 437 kts | 227° |
| 2026-04-22 19:02 | 42.45993 | -108.52769 | 35687 ft | 437 kts | 227° |
| 2026-04-22 19:02 | 42.42019 | -108.59012 | 35693 ft | 438 kts | 227° |
| 2026-04-22 19:03 | 42.38037 | -108.65253 | 35692 ft | 438 kts | 227° |
| 2026-04-22 19:03 | 42.34052 | -108.71488 | 35727 ft | 438 kts | 227° |
| 2026-04-22 19:04 | 42.30057 | -108.77723 | 35725 ft | 438 kts | 227° |
| 2026-04-22 19:04 | 42.26089 | -108.83903 | 35729 ft | 438 kts | 227° |
| 2026-04-22 19:05 | 42.22101 | -108.90102 | 35755 ft | 436 kts | 228° |
| 2026-04-22 19:05 | 42.18128 | -108.96266 | 35751 ft | 433 kts | 228° |
| 2026-04-22 19:06 | 42.14182 | -109.02374 | 35769 ft | 431 kts | 228° |
| 2026-04-22 19:07 | 42.08291 | -109.11467 | 35778 ft | 429 kts | 227° |
| 2026-04-22 19:07 | 42.04390 | -109.17474 | 35799 ft | 429 kts | 228° |
| 2026-04-22 19:08 | 42.00447 | -109.23535 | 35802 ft | 430 kts | 228° |
| 2026-04-22 19:08 | 41.96502 | -109.29585 | 35802 ft | 430 kts | 228° |
| 2026-04-22 19:09 | 41.92558 | -109.35621 | 35814 ft | 430 kts | 228° |
| 2026-04-22 19:09 | 41.89279 | -109.40630 | 35810 ft | 430 kts | 228° |
| 2026-04-22 19:10 | 41.84662 | -109.47671 | 35844 ft | 430 kts | 228° |
| 2026-04-22 19:10 | 41.80708 | -109.53685 | 35817 ft | 430 kts | 228° |
| 2026-04-22 19:11 | 41.76754 | -109.59688 | 35809 ft | 429 kts | 228° |
| 2026-04-22 19:11 | 41.72800 | -109.65680 | 35805 ft | 429 kts | 228° |
| 2026-04-22 19:12 | 41.68854 | -109.71646 | 35795 ft | 427 kts | 229° |
| 2026-04-22 19:12 | 41.64924 | -109.77578 | 35799 ft | 425 kts | 229° |
| 2026-04-22 19:13 | 41.61028 | -109.83446 | 35803 ft | 424 kts | 229° |
| 2026-04-22 19:13 | 41.57111 | -109.89337 | 35804 ft | 424 kts | 229° |
| 2026-04-22 19:14 | 41.53187 | -109.95226 | 35815 ft | 424 kts | 229° |
| 2026-04-22 19:14 | 41.49099 | -110.00897 | 35821 ft | 425 kts | 223° |
| 2026-04-22 19:15 | 41.45218 | -110.05009 | 35890 ft | 426 kts | 219° |
| 2026-04-22 19:15 | 41.39756 | -110.10622 | 35919 ft | 425 kts | 220° |
| 2026-04-22 19:16 | 41.35076 | -110.15452 | 35957 ft | 426 kts | 220° |
| 2026-04-22 19:16 | 41.30387 | -110.20292 | 35960 ft | 427 kts | 220° |
| 2026-04-22 19:17 | 41.25686 | -110.25137 | 35963 ft | 428 kts | 220° |
| 2026-04-22 19:17 | 41.21003 | -110.29954 | 35954 ft | 428 kts | 220° |
| 2026-04-22 19:18 | 41.16284 | -110.34799 | 35939 ft | 428 kts | 220° |
| 2026-04-22 19:18 | 41.11577 | -110.39621 | 35929 ft | 426 kts | 220° |
| 2026-04-22 19:19 | 41.06881 | -110.44425 | 35902 ft | 425 kts | 220° |
| 2026-04-22 19:19 | 41.02194 | -110.49210 | 35925 ft | 425 kts | 220° |
| 2026-04-22 19:20 | 40.97501 | -110.53992 | 35936 ft | 425 kts | 220° |
| 2026-04-22 19:20 | 40.92830 | -110.58744 | 35929 ft | 427 kts | 220° |
| 2026-04-22 19:21 | 40.88110 | -110.63536 | 35950 ft | 427 kts | 220° |
| 2026-04-22 19:21 | 40.83387 | -110.68323 | 35944 ft | 428 kts | 220° |
| 2026-04-22 19:22 | 40.78650 | -110.73115 | 35947 ft | 429 kts | 220° |
| 2026-04-22 19:22 | 40.73909 | -110.77902 | 35959 ft | 429 kts | 220° |
| 2026-04-22 19:23 | 40.69197 | -110.82651 | 35954 ft | 429 kts | 220° |
| 2026-04-22 19:23 | 40.64460 | -110.87414 | 35955 ft | 427 kts | 221° |
| 2026-04-22 19:24 | 40.59745 | -110.92148 | 35959 ft | 425 kts | 221° |
| 2026-04-22 19:24 | 40.55052 | -110.96851 | 35961 ft | 423 kts | 221° |
| 2026-04-22 19:25 | 40.50370 | -111.01537 | 35968 ft | 422 kts | 221° |
| 2026-04-22 19:25 | 40.45692 | -111.06210 | 35982 ft | 422 kts | 221° |
| 2026-04-22 19:26 | 40.41036 | -111.10852 | 35973 ft | 422 kts | 221° |
| 2026-04-22 19:26 | 40.36365 | -111.15500 | 36005 ft | 422 kts | 221° |
| 2026-04-22 19:27 | 40.31681 | -111.20154 | 35984 ft | 422 kts | 221° |
| 2026-04-22 19:27 | 40.26989 | -111.24807 | 35974 ft | 423 kts | 221° |
| 2026-04-22 19:28 | 40.22302 | -111.29446 | 35978 ft | 423 kts | 221° |
| 2026-04-22 19:28 | 40.17608 | -111.34085 | 35924 ft | 423 kts | 221° |
| 2026-04-22 19:29 | 40.12922 | -111.38706 | 35950 ft | 421 kts | 221° |
| 2026-04-22 19:29 | 40.08278 | -111.43278 | 35941 ft | 420 kts | 221° |
| 2026-04-22 19:30 | 40.05161 | -111.46343 | 35933 ft | 419 kts | 221° |
| 2026-04-22 19:30 | 39.98972 | -111.52418 | 35947 ft | 418 kts | 221° |
| 2026-04-22 19:31 | 39.94325 | -111.56970 | 35918 ft | 417 kts | 221° |
| 2026-04-22 19:31 | 39.89695 | -111.61494 | 35926 ft | 415 kts | 222° |
| 2026-04-22 19:32 | 39.85079 | -111.66001 | 35929 ft | 413 kts | 222° |
| 2026-04-22 19:32 | 39.81264 | -111.69721 | 35931 ft | 412 kts | 222° |
| 2026-04-22 19:33 | 39.75920 | -111.74920 | 35920 ft | 412 kts | 222° |
| 2026-04-22 19:33 | 39.72071 | -111.78659 | 35938 ft | 412 kts | 222° |
| 2026-04-22 19:34 | 39.67454 | -111.83137 | 35934 ft | 414 kts | 222° |
| 2026-04-22 19:34 | 39.62864 | -111.87580 | 35915 ft | 413 kts | 222° |
| 2026-04-22 19:35 | 39.58259 | -111.92032 | 35913 ft | 412 kts | 222° |
| 2026-04-22 19:35 | 39.53670 | -111.96461 | 35920 ft | 411 kts | 222° |
| 2026-04-22 19:36 | 39.49113 | -112.00855 | 35926 ft | 410 kts | 223° |
| 2026-04-22 19:36 | 39.44557 | -112.05320 | 35920 ft | 410 kts | 223° |
| 2026-04-22 19:37 | 39.40011 | -112.09796 | 35878 ft | 410 kts | 223° |
| 2026-04-22 19:37 | 39.35464 | -112.14260 | 35927 ft | 410 kts | 223° |
| 2026-04-22 19:38 | 39.30924 | -112.18705 | 35904 ft | 409 kts | 223° |
| 2026-04-22 19:38 | 39.26421 | -112.23105 | 35923 ft | 409 kts | 223° |
| 2026-04-22 19:39 | 39.21882 | -112.27533 | 35975 ft | 409 kts | 223° |
| 2026-04-22 19:39 | 39.17330 | -112.31966 | 36009 ft | 411 kts | 223° |
| 2026-04-22 19:40 | 39.12765 | -112.36403 | 35990 ft | 411 kts | 223° |
| 2026-04-22 19:40 | 39.08205 | -112.40828 | 36038 ft | 410 kts | 223° |
| 2026-04-22 19:41 | 39.03645 | -112.45246 | 36056 ft | 410 kts | 223° |
| 2026-04-22 19:41 | 38.99075 | -112.49666 | 36058 ft | 410 kts | 223° |
| 2026-04-22 19:41 | 38.96797 | -112.51866 | 35918 ft | 410 kts | 223° |
| 2026-04-22 19:42 | 38.94547 | -112.54038 | 35916 ft | 409 kts | 223° |
| 2026-04-22 19:42 | 38.89996 | -112.58426 | 35919 ft | 409 kts | 223° |
| 2026-04-22 19:43 | 38.83175 | -112.64987 | 35904 ft | 407 kts | 224° |
| 2026-04-22 19:43 | 38.78637 | -112.69346 | 35925 ft | 408 kts | 224° |
| 2026-04-22 19:44 | 38.74090 | -112.73705 | 35908 ft | 408 kts | 224° |
| 2026-04-22 19:44 | 38.69535 | -112.78065 | 35930 ft | 408 kts | 224° |
| 2026-04-22 19:45 | 38.65008 | -112.82391 | 35963 ft | 409 kts | 224° |
| 2026-04-22 19:45 | 38.60441 | -112.86747 | 35966 ft | 409 kts | 224° |
| 2026-04-22 19:46 | 38.55878 | -112.91091 | 35999 ft | 408 kts | 224° |
| 2026-04-22 19:46 | 38.51319 | -112.95427 | 36031 ft | 408 kts | 224° |
| 2026-04-22 19:47 | 38.46765 | -112.99750 | 36036 ft | 408 kts | 224° |
| 2026-04-22 19:47 | 38.42205 | -113.04072 | 36035 ft | 408 kts | 224° |
| 2026-04-22 19:48 | 38.37672 | -113.08362 | 36037 ft | 407 kts | 224° |
| 2026-04-22 19:48 | 38.33120 | -113.12662 | 36011 ft | 407 kts | 224° |
| 2026-04-22 19:49 | 38.28564 | -113.16960 | 35996 ft | 407 kts | 224° |
| 2026-04-22 19:49 | 38.23999 | -113.21260 | 35967 ft | 408 kts | 224° |
| 2026-04-22 19:50 | 38.19434 | -113.25553 | 35940 ft | 409 kts | 224° |
| 2026-04-22 19:50 | 38.14856 | -113.29851 | 35904 ft | 409 kts | 224° |
| 2026-04-22 19:51 | 38.10275 | -113.34144 | 35910 ft | 409 kts | 224° |
| 2026-04-22 19:51 | 38.05720 | -113.38408 | 35875 ft | 409 kts | 224° |
| 2026-04-22 19:52 | 38.01136 | -113.42692 | 35902 ft | 409 kts | 224° |
| 2026-04-22 19:52 | 37.96509 | -113.46902 | 35902 ft | 413 kts | 219° |
| 2026-04-22 19:53 | 37.91221 | -113.50033 | 35916 ft | 425 kts | 210° |
| 2026-04-22 19:53 | 37.85434 | -113.52031 | 35939 ft | 437 kts | 201° |
| 2026-04-22 19:54 | 37.79448 | -113.53425 | 35913 ft | 436 kts | 200° |
| 2026-04-22 19:54 | 37.73477 | -113.54803 | 35933 ft | 435 kts | 201° |
| 2026-04-22 19:55 | 37.67535 | -113.56214 | 35946 ft | 434 kts | 201° |
| 2026-04-22 19:55 | 37.61646 | -113.57630 | 35949 ft | 434 kts | 201° |
| 2026-04-22 19:56 | 37.55706 | -113.59060 | 35939 ft | 433 kts | 201° |
| 2026-04-22 19:56 | 37.49790 | -113.60480 | 35957 ft | 433 kts | 201° |
| 2026-04-22 19:57 | 37.43860 | -113.61900 | 35970 ft | 433 kts | 201° |
| 2026-04-22 19:57 | 37.37935 | -113.63318 | 35973 ft | 433 kts | 201° |
| 2026-04-22 19:58 | 37.32052 | -113.64721 | 35971 ft | 433 kts | 201° |
| 2026-04-22 19:58 | 37.26134 | -113.66132 | 36001 ft | 433 kts | 201° |
| 2026-04-22 20:00 | 37.05484 | -113.71119 | 36035 ft | 427 kts | 205° |
| 2026-04-22 20:01 | 36.99953 | -113.73502 | 36016 ft | 416 kts | 211° |
| 2026-04-22 20:01 | 36.94547 | -113.76167 | 36010 ft | 419 kts | 211° |
| 2026-04-22 20:02 | 36.89110 | -113.78809 | 35990 ft | 420 kts | 211° |
| 2026-04-22 20:02 | 36.83685 | -113.81431 | 35984 ft | 422 kts | 211° |
| 2026-04-22 20:03 | 36.78192 | -113.84084 | 36000 ft | 425 kts | 211° |
| 2026-04-22 20:03 | 36.72649 | -113.86756 | 35980 ft | 428 kts | 211° |
| 2026-04-22 20:04 | 36.67077 | -113.89439 | 35976 ft | 430 kts | 211° |
| 2026-04-22 20:04 | 36.61578 | -113.92261 | 35963 ft | 425 kts | 213° |
| 2026-04-22 20:05 | 36.56211 | -113.95312 | 35975 ft | 423 kts | 214° |
| 2026-04-22 20:05 | 36.50882 | -113.98301 | 35982 ft | 422 kts | 213° |
| 2026-04-22 20:06 | 36.45517 | -114.01265 | 35976 ft | 421 kts | 213° |
| 2026-04-22 20:06 | 36.40226 | -114.04346 | 35981 ft | 415 kts | 218° |
| 2026-04-22 20:07 | 36.35355 | -114.08082 | 35965 ft | 411 kts | 220° |
| 2026-04-22 20:07 | 36.30485 | -114.11831 | 35969 ft | 413 kts | 220° |
| 2026-04-22 20:08 | 36.25588 | -114.15578 | 35974 ft | 415 kts | 220° |
| 2026-04-22 20:08 | 36.20655 | -114.19343 | 35958 ft | 417 kts | 220° |
| 2026-04-22 20:09 | 36.15708 | -114.23115 | 35965 ft | 418 kts | 220° |
| 2026-04-22 20:09 | 36.10806 | -114.26968 | 35963 ft | 413 kts | 224° |
| 2026-04-22 20:10 | 36.06486 | -114.31499 | 35947 ft | 407 kts | 230° |
| 2026-04-22 20:10 | 36.02673 | -114.36612 | 35957 ft | 404 kts | 234° |
| 2026-04-22 20:11 | 35.98936 | -114.41830 | 35949 ft | 406 kts | 234° |
| 2026-04-22 20:11 | 35.95172 | -114.47065 | 35970 ft | 408 kts | 234° |
| 2026-04-22 20:12 | 35.91386 | -114.52304 | 35973 ft | 410 kts | 234° |
| 2026-04-22 20:12 | 35.88220 | -114.56672 | 35979 ft | 410 kts | 233° |
| 2026-04-22 20:13 | 35.83792 | -114.62772 | 35962 ft | 411 kts | 234° |
| 2026-04-22 20:13 | 35.79974 | -114.68022 | 36008 ft | 411 kts | 233° |
| 2026-04-22 20:14 | 35.76151 | -114.73275 | 36007 ft | 410 kts | 233° |
| 2026-04-22 20:14 | 35.72341 | -114.78500 | 36027 ft | 409 kts | 233° |
| 2026-04-22 20:15 | 35.68571 | -114.83664 | 36029 ft | 407 kts | 233° |
| 2026-04-22 20:15 | 35.64790 | -114.88838 | 36037 ft | 406 kts | 234° |
| 2026-04-22 20:16 | 35.61012 | -114.94022 | 36034 ft | 407 kts | 234° |
| 2026-04-22 20:16 | 35.57233 | -114.99202 | 36035 ft | 406 kts | 234° |
| 2026-04-22 20:17 | 35.53456 | -115.04370 | 36060 ft | 406 kts | 234° |
| 2026-04-22 20:17 | 35.49671 | -115.09515 | 36047 ft | 407 kts | 233° |
| 2026-04-22 20:18 | 35.45820 | -115.14549 | 36068 ft | 407 kts | 233° |
| 2026-04-22 20:18 | 35.41926 | -115.19598 | 36057 ft | 407 kts | 233° |
| 2026-04-22 20:19 | 35.38031 | -115.24660 | 36075 ft | 408 kts | 233° |
| 2026-04-22 20:19 | 35.34127 | -115.29738 | 36076 ft | 410 kts | 233° |
| 2026-04-22 20:20 | 35.30235 | -115.34793 | 36066 ft | 410 kts | 233° |
| 2026-04-22 20:20 | 35.26312 | -115.39882 | 36085 ft | 410 kts | 233° |
| 2026-04-22 20:21 | 35.22383 | -115.44972 | 36085 ft | 411 kts | 232° |
| 2026-04-22 20:21 | 35.18475 | -115.50027 | 36079 ft | 411 kts | 232° |
| 2026-04-22 20:22 | 35.14537 | -115.55114 | 36090 ft | 412 kts | 232° |
| 2026-04-22 20:22 | 35.11260 | -115.59335 | 36071 ft | 411 kts | 232° |
| 2026-04-22 20:23 | 35.07307 | -115.64392 | 36077 ft | 411 kts | 232° |
| 2026-04-22 20:23 | 35.03346 | -115.69447 | 36084 ft | 412 kts | 232° |
| 2026-04-22 20:24 | 34.99382 | -115.74505 | 36083 ft | 412 kts | 232° |
| 2026-04-22 20:24 | 34.95414 | -115.79562 | 36079 ft | 413 kts | 232° |
| 2026-04-22 20:25 | 34.91456 | -115.84598 | 36071 ft | 414 kts | 232° |
| 2026-04-22 20:25 | 34.87465 | -115.89668 | 36060 ft | 414 kts | 232° |
| 2026-04-22 20:26 | 34.83470 | -115.94734 | 36061 ft | 414 kts | 232° |
| 2026-04-22 20:26 | 34.79482 | -115.99789 | 36034 ft | 413 kts | 232° |
| 2026-04-22 20:27 | 34.75500 | -116.04837 | 36046 ft | 413 kts | 233° |
| 2026-04-22 20:27 | 34.71526 | -116.09901 | 36057 ft | 414 kts | 233° |
| 2026-04-22 20:28 | 34.67546 | -116.14971 | 36043 ft | 414 kts | 233° |
| 2026-04-22 20:28 | 34.63590 | -116.19998 | 36049 ft | 414 kts | 233° |
| 2026-04-22 20:29 | 34.59607 | -116.25053 | 36057 ft | 414 kts | 233° |
| 2026-04-22 20:29 | 34.55614 | -116.30111 | 36058 ft | 413 kts | 233° |
| 2026-04-22 20:29 | 34.53612 | -116.32647 | 35458 ft | 423 kts | 232° |
| 2026-04-22 20:30 | 34.51565 | -116.35243 | 34690 ft | 426 kts | 232° |
| 2026-04-22 20:30 | 34.49506 | -116.37843 | 33803 ft | 428 kts | 231° |
| 2026-04-22 20:30 | 34.47434 | -116.40458 | 32802 ft | 430 kts | 231° |
| 2026-04-22 20:30 | 34.45354 | -116.43081 | 31836 ft | 432 kts | 231° |
| 2026-04-22 20:31 | 34.43295 | -116.45676 | 30885 ft | 434 kts | 231° |
| 2026-04-22 20:31 | 34.41334 | -116.48440 | 30036 ft | 429 kts | 239° |
| 2026-04-22 20:31 | 34.39957 | -116.51588 | 29190 ft | 419 kts | 248° |
| 2026-04-22 20:31 | 34.38739 | -116.54788 | 28417 ft | 416 kts | 246° |
| 2026-04-22 20:32 | 34.37492 | -116.57895 | 28161 ft | 402 kts | 246° |
| 2026-04-22 20:32 | 34.36267 | -116.60873 | 27975 ft | 389 kts | 246° |
| 2026-04-22 20:32 | 34.35077 | -116.63751 | 27813 ft | 375 kts | 246° |
| 2026-04-22 20:32 | 34.33926 | -116.66532 | 27661 ft | 363 kts | 246° |
| 2026-04-22 20:33 | 34.32814 | -116.69238 | 27244 ft | 358 kts | 246° |
| 2026-04-22 20:33 | 34.31728 | -116.71935 | 26758 ft | 355 kts | 246° |
| 2026-04-22 20:33 | 34.30657 | -116.74608 | 26272 ft | 351 kts | 246° |
| 2026-04-22 20:33 | 34.29597 | -116.77258 | 25810 ft | 349 kts | 246° |
| 2026-04-22 20:34 | 34.28540 | -116.79893 | 25313 ft | 347 kts | 246° |
| 2026-04-22 20:34 | 34.27485 | -116.82513 | 24827 ft | 345 kts | 246° |
| 2026-04-22 20:34 | 34.26437 | -116.85114 | 24352 ft | 344 kts | 246° |
| 2026-04-22 20:34 | 34.25418 | -116.87637 | 24244 ft | 332 kts | 246° |
| 2026-04-22 20:35 | 34.24393 | -116.90177 | 23626 ft | 337 kts | 246° |
| 2026-04-22 20:35 | 34.23362 | -116.92731 | 23026 ft | 338 kts | 246° |
| 2026-04-22 20:35 | 34.22334 | -116.95271 | 22525 ft | 336 kts | 246° |
| 2026-04-22 20:35 | 34.21314 | -116.97796 | 22050 ft | 333 kts | 246° |
| 2026-04-22 20:36 | 34.20437 | -117.00374 | 21606 ft | 331 kts | 252° |
| 2026-04-22 20:36 | 34.19741 | -117.03019 | 21164 ft | 331 kts | 253° |
| 2026-04-22 20:36 | 34.19074 | -117.05680 | 20660 ft | 330 kts | 254° |
| 2026-04-22 20:36 | 34.18392 | -117.08320 | 20199 ft | 329 kts | 253° |
| 2026-04-22 20:37 | 34.17690 | -117.10951 | 19770 ft | 328 kts | 253° |
| 2026-04-22 20:37 | 34.16983 | -117.13572 | 19317 ft | 328 kts | 253° |
| 2026-04-22 20:37 | 34.16273 | -117.16185 | 18839 ft | 327 kts | 253° |
| 2026-04-22 20:37 | 34.15559 | -117.18785 | 18480 ft | 326 kts | 253° |
| 2026-04-22 20:38 | 34.14842 | -117.21390 | 17935 ft | 326 kts | 253° |
| 2026-04-22 20:38 | 34.14128 | -117.23979 | 17454 ft | 325 kts | 253° |
| 2026-04-22 20:38 | 34.13425 | -117.26527 | 17003 ft | 323 kts | 253° |
| 2026-04-22 20:38 | 34.12710 | -117.29121 | 16538 ft | 321 kts | 253° |
| 2026-04-22 20:39 | 34.12016 | -117.31640 | 16101 ft | 320 kts | 253° |
| 2026-04-22 20:39 | 34.11311 | -117.34195 | 15512 ft | 322 kts | 253° |
| 2026-04-22 20:39 | 34.10601 | -117.36762 | 15039 ft | 322 kts | 253° |
| 2026-04-22 20:39 | 34.09929 | -117.39338 | 14584 ft | 321 kts | 255° |
| 2026-04-22 20:40 | 34.09292 | -117.41920 | 14130 ft | 320 kts | 255° |
| 2026-04-22 20:40 | 34.08656 | -117.44494 | 13645 ft | 320 kts | 255° |
| 2026-04-22 20:40 | 34.08017 | -117.47054 | 13335 ft | 314 kts | 255° |
| 2026-04-22 20:40 | 34.07395 | -117.49526 | 13239 ft | 301 kts | 255° |
| 2026-04-22 20:41 | 34.06688 | -117.51826 | 13146 ft | 291 kts | 250° |
| 2026-04-22 20:41 | 34.05885 | -117.54023 | 12998 ft | 282 kts | 249° |
| 2026-04-22 20:41 | 34.05080 | -117.56176 | 12786 ft | 275 kts | 249° |
| 2026-04-22 20:41 | 34.04315 | -117.58246 | 12455 ft | 273 kts | 249° |
| 2026-04-22 20:42 | 34.03549 | -117.60344 | 12076 ft | 274 kts | 249° |
| 2026-04-22 20:42 | 34.02787 | -117.62450 | 11692 ft | 274 kts | 249° |
| 2026-04-22 20:42 | 34.02028 | -117.64551 | 11347 ft | 273 kts | 249° |
| 2026-04-22 20:42 | 34.01268 | -117.66654 | 11002 ft | 273 kts | 249° |
| 2026-04-22 20:43 | 34.00593 | -117.68771 | 10620 ft | 268 kts | 259° |
| 2026-04-22 20:43 | 34.00309 | -117.71002 | 10204 ft | 270 kts | 266° |
| 2026-04-22 20:43 | 34.00129 | -117.73249 | 9839 ft | 270 kts | 266° |
| 2026-04-22 20:43 | 33.99944 | -117.75505 | 9456 ft | 270 kts | 266° |
| 2026-04-22 20:44 | 33.99748 | -117.77754 | 9064 ft | 270 kts | 265° |
| 2026-04-22 20:44 | 33.99537 | -117.80005 | 8697 ft | 271 kts | 265° |
| 2026-04-22 20:44 | 33.99319 | -117.82261 | 8388 ft | 270 kts | 265° |
| 2026-04-22 20:44 | 33.99107 | -117.84473 | 8099 ft | 260 kts | 265° |
| 2026-04-22 20:45 | 33.98901 | -117.86595 | 7836 ft | 248 kts | 265° |
| 2026-04-22 20:45 | 33.98703 | -117.88610 | 7548 ft | 237 kts | 265° |
| 2026-04-22 20:45 | 33.98515 | -117.90536 | 7274 ft | 226 kts | 265° |
| 2026-04-22 20:45 | 33.98377 | -117.92336 | 7177 ft | 212 kts | 267° |
| 2026-04-22 20:46 | 33.98091 | -117.95726 | 6930 ft | 197 kts | 266° |
| 2026-04-22 20:46 | 33.97933 | -117.97387 | 6729 ft | 202 kts | 266° |
| 2026-04-22 20:46 | 33.97765 | -117.99083 | 6477 ft | 206 kts | 266° |
| 2026-04-22 20:47 | 33.97592 | -118.00789 | 6194 ft | 202 kts | 266° |
| 2026-04-22 20:47 | 33.97422 | -118.02430 | 5906 ft | 192 kts | 265° |
| 2026-04-22 20:47 | 33.97260 | -118.04006 | 5675 ft | 188 kts | 265° |
| 2026-04-22 20:47 | 33.97100 | -118.05561 | 5417 ft | 186 kts | 264° |
| 2026-04-22 20:48 | 33.96943 | -118.07085 | 5194 ft | 186 kts | 265° |
| 2026-04-22 20:48 | 33.96783 | -118.08660 | 4943 ft | 193 kts | 265° |
| 2026-04-22 20:48 | 33.96617 | -118.10275 | 4677 ft | 195 kts | 265° |
| 2026-04-22 20:48 | 33.96450 | -118.11893 | 4411 ft | 194 kts | 264° |
| 2026-04-22 20:49 | 33.96286 | -118.13495 | 4148 ft | 190 kts | 264° |
| 2026-04-22 20:49 | 33.96125 | -118.15052 | 3896 ft | 186 kts | 263° |
| 2026-04-22 20:49 | 33.95967 | -118.16585 | 3630 ft | 183 kts | 263° |
| 2026-04-22 20:49 | 33.95813 | -118.18092 | 3432 ft | 180 kts | 262° |
| 2026-04-22 20:50 | 33.95661 | -118.19570 | 3193 ft | 176 kts | 262° |
| 2026-04-22 20:50 | 33.95511 | -118.21023 | 2953 ft | 173 kts | 262° |
| 2026-04-22 20:50 | 33.95365 | -118.22448 | 2722 ft | 172 kts | 262° |
| 2026-04-22 20:50 | 33.95216 | -118.23896 | 2517 ft | 175 kts | 262° |
| 2026-04-22 20:51 | 33.95065 | -118.25368 | 2266 ft | 178 kts | 261° |
| 2026-04-22 20:51 | 33.94916 | -118.26822 | 2033 ft | 172 kts | 262° |
| 2026-04-22 20:51 | 33.94774 | -118.28199 | 1781 ft | 165 kts | 262° |
| 2026-04-22 20:51 | 33.94639 | -118.29513 | 1566 ft | 152 kts | 262° |
| 2026-04-22 20:52 | 33.94509 | -118.30780 | 1391 ft | 156 kts | 262° |
| 2026-04-22 20:52 | 33.94378 | -118.32054 | 1163 ft | 148 kts | 261° |
| 2026-04-22 20:52 | 33.94260 | -118.33203 | 990 ft | 134 kts | 261° |
| 2026-04-22 20:52 | 33.94138 | -118.34366 | 786 ft | 142 kts | 262° |
| 2026-04-22 20:53 | 33.94020 | -118.35523 | 606 ft | 135 kts | 264° |
| 2026-04-22 20:53 | 33.93913 | -118.36624 | 378 ft | 131 kts | 262° |
| 2026-04-22 20:53 | 33.93804 | -118.37706 | 231 ft | 130 kts | 259° |
| 2026-04-22 20:53 | 33.93680 | -118.38830 | 103 ft | 136 kts | 260° |
| 2026-04-22 20:54 | 33.93576 | -118.39818 | 102 ft | 86 kts | 263° |
| 2026-04-22 20:54 | 33.93532 | -118.40267 | 100 ft | 44 kts | 266° |
| 2026-04-22 20:54 | 33.93565 | -118.40541 | 102 ft | 18 kts | 288° |
| 2026-04-22 20:54 | 33.93594 | -118.40666 | 102 ft | 15 kts | 278° |
| 2026-04-22 20:55 | 33.93595 | -118.40793 | 101 ft | 15 kts | 274° |
| 2026-04-22 20:55 | 33.93648 | -118.40887 | 101 ft | 13 kts | 336° |
| 2026-04-22 20:55 | 33.93725 | -118.40906 | 100 ft | 9 kts | 353° |
| 2026-04-22 20:55 | 33.93755 | -118.40910 | 100 ft | 1 kts | 353° |
| 2026-04-22 20:56 | 33.93756 | -118.40910 | 100 ft | 0 kts | 353° |
| 2026-04-22 20:56 | 33.93759 | -118.40910 | 100 ft | 2 kts | 354° |
| 2026-04-22 20:56 | 33.93800 | -118.40915 | 99 ft | 8 kts | 354° |
| 2026-04-22 20:56 | 33.93841 | -118.40920 | 99 ft | 6 kts | 1° |
| 2026-04-22 20:57 | 33.93868 | -118.40889 | 100 ft | 6 kts | 67° |
| 2026-04-22 20:57 | 33.93880 | -118.40841 | 99 ft | 6 kts | 67° |
| 2026-04-22 20:57 | 33.93912 | -118.40810 | 101 ft | 6 kts | 15° |
| 2026-04-22 20:57 | 33.93955 | -118.40815 | 98 ft | 6 kts | 351° |
| 2026-04-22 20:58 | 33.93998 | -118.40822 | 100 ft | 6 kts | 353° |
| 2026-04-22 20:58 | 33.94042 | -118.40828 | 101 ft | 6 kts | 353° |
| 2026-04-22 20:58 | 33.94082 | -118.40834 | 99 ft | 6 kts | 351° |
| 2026-04-22 20:58 | 33.94095 | -118.40871 | 101 ft | 5 kts | 262° |
| 2026-04-22 20:59 | 33.94090 | -118.40913 | 98 ft | 4 kts | 262° |
| 2026-04-22 20:59 | 33.94088 | -118.40931 | 100 ft | 2 kts | 262° |
| 2026-04-22 20:59 | 33.94087 | -118.40940 | 100 ft | 0 kts | 262° |
| 2026-04-22 20:59 | 33.94087 | -118.40941 | 100 ft | 0 kts | 262° |